Time,TemperatureF,DewpointF,PressureIn,WindDirection,WindDirectionDegrees,WindSpeedMPH,WindSpeedGustMPH,Humidity,HourlyPrecipIn,Conditions,Clouds,dailyrainin,SolarRadiationWatts/m^2,SoftwareType,DateUTC
2013-04-18 00:01:00,38.7,36.9,29.89,NNE,25,5.0,5.0,93,0.04,,,0.00,0,Wunderground v.1.15,2013-04-18 05:01:00,
2013-04-18 00:04:00,38.8,36.9,29.89,NE,43,4.0,6.0,93,0.00,,,0.00,0,Wunderground v.1.15,2013-04-18 05:04:00,
2013-04-18 00:06:00,38.8,36.9,29.89,NNE,20,4.0,8.0,93,0.00,,,0.00,0,Wunderground v.1.15,2013-04-18 05:06:00,
2013-04-18 00:09:00,38.9,37.0,29.89,NNE,18,5.0,8.0,93,0.00,,,0.00,0,Wunderground v.1.15,2013-04-18 05:09:00,
2013-04-18 00:11:00,38.9,37.0,29.89,North,5,5.0,5.0,93,0.00,,,0.00,0,Wunderground v.1.15,2013-04-18 05:11:00,
2013-04-18 00:13:00,39.0,37.1,29.89,NNE,14,4.0,5.0,93,0.00,,,0.00,0,Wunderground v.1.15,2013-04-18 05:13:00,
2013-04-18 00:14:00,39.0,37.1,29.89,NNE,20,4.0,5.0,93,0.00,,,0.00,0,Wunderground v.1.15,2013-04-18 05:14:00,
2013-04-18 00:17:00,39.0,37.1,29.89,NNE,22,3.0,5.0,93,0.00,,,0.00,0,Wunderground v.1.15,2013-04-18 05:17:00,
2013-04-18 00:18:00,39.0,37.1,29.88,NE,49,3.0,5.0,93,0.00,,,0.00,0,Wunderground v.1.15,2013-04-18 05:18:00,
2013-04-18 00:20:00,39.1,37.2,29.88,NE,35,4.0,4.0,93,0.00,,,0.00,0,Wunderground v.1.15,2013-04-18 05:20:00,
2013-04-18 00:21:00,39.1,37.2,29.88,NNE,33,4.0,5.0,93,0.00,,,0.00,0,Wunderground v.1.15,2013-04-18 05:21:00,
2013-04-18 00:22:00,39.1,37.2,29.88,NNE,22,4.0,6.0,93,0.00,,,0.00,0,Wunderground v.1.15,2013-04-18 05:22:00,
2013-04-18 00:24:00,39.1,37.2,29.87,NE,38,4.0,6.0,93,0.00,,,0.00,0,Wunderground v.1.15,2013-04-18 05:24:00,
2013-04-18 00:25:00,39.1,37.2,29.87,NE,38,4.0,6.0,93,0.00,,,0.00,0,Wunderground v.1.15,2013-04-18 05:25:00,
2013-04-18 00:27:00,39.1,37.2,29.87,NNE,27,3.0,6.0,93,0.00,,,0.00,0,Wunderground v.1.15,2013-04-18 05:27:00,
2013-04-18 00:28:00,39.1,37.2,29.87,NE,55,3.0,6.0,93,0.00,,,0.00,0,Wunderground v.1.15,2013-04-18 05:28:00,
2013-04-18 00:29:00,39.1,37.2,29.86,NE,54,3.0,6.0,93,0.00,,,0.00,0,Wunderground v.1.15,2013-04-18 05:29:00,
2013-04-18 00:30:00,39.1,37.2,29.86,NE,41,3.0,4.0,93,0.00,,,0.00,0,Wunderground v.1.15,2013-04-18 05:30:00,
2013-04-18 00:34:00,39.1,37.2,29.87,NE,34,3.0,10.0,93,0.00,,,0.00,0,Wunderground v.1.15,2013-04-18 05:34:00,
2013-04-18 00:36:00,39.1,37.2,29.87,NE,42,4.0,10.0,93,0.00,,,0.00,0,Wunderground v.1.15,2013-04-18 05:36:00,
2013-04-18 00:39:00,39.2,37.3,29.84,NE,48,6.0,16.0,93,0.00,,,0.00,0,Wunderground v.1.15,2013-04-18 05:39:00,
2013-04-18 00:42:00,39.1,37.2,29.80,NNE,14,8.0,17.0,93,0.00,,,0.00,0,Wunderground v.1.15,2013-04-18 05:42:00,
2013-04-18 00:44:00,39.1,37.2,29.80,ENE,61,8.0,17.0,93,0.00,,,0.00,0,Wunderground v.1.15,2013-04-18 05:44:00,
2013-04-18 00:45:00,39.1,37.2,29.80,ENE,71,8.0,17.0,93,0.00,,,0.00,0,Wunderground v.1.15,2013-04-18 05:45:00,
2013-04-18 00:48:00,39.1,37.2,29.81,NW,323,8.0,17.0,93,0.00,,,0.01,0,Wunderground v.1.15,2013-04-18 05:48:00,
2013-04-18 00:49:00,39.1,37.2,29.81,North,11,8.0,17.0,93,0.00,,,0.01,0,Wunderground v.1.15,2013-04-18 05:49:00,
2013-04-18 00:51:00,39.1,37.2,29.82,North,351,6.0,7.0,93,0.00,,,0.01,0,Wunderground v.1.15,2013-04-18 05:51:00,
2013-04-18 00:52:00,39.2,37.3,29.83,WNW,302,6.0,7.0,93,0.00,,,0.01,0,Wunderground v.1.15,2013-04-18 05:52:00,
2013-04-18 00:56:00,39.2,37.3,29.86,West,264,4.0,7.0,93,0.00,,,0.01,0,Wunderground v.1.15,2013-04-18 05:56:00,
2013-04-18 00:58:00,39.3,37.4,29.85,West,264,3.0,7.0,93,0.00,,,0.01,0,Wunderground v.1.15,2013-04-18 05:58:00,
2013-04-18 00:59:00,39.3,37.4,29.84,North,10,3.0,7.0,93,0.00,,,0.01,0,Wunderground v.1.15,2013-04-18 05:59:00,
2013-04-18 01:01:00,39.3,37.4,29.85,NE,53,2.0,2.0,93,0.00,,,0.01,0,Wunderground v.1.15,2013-04-18 06:01:00,
2013-04-18 01:02:00,39.3,37.4,29.84,ENE,72,2.0,5.0,93,0.00,,,0.01,0,Wunderground v.1.15,2013-04-18 06:02:00,
2013-04-18 01:04:00,39.4,37.5,29.84,NNE,19,2.0,5.0,93,0.00,,,0.01,0,Wunderground v.1.15,2013-04-18 06:04:00,
2013-04-18 01:08:00,39.5,37.6,29.84,East,86,3.0,7.0,93,0.00,,,0.01,0,Wunderground v.1.15,2013-04-18 06:08:00,
2013-04-18 01:09:00,39.5,37.6,29.84,NNW,344,3.0,7.0,93,0.00,,,0.01,0,Wunderground v.1.15,2013-04-18 06:09:00,
2013-04-18 01:10:00,39.5,37.6,29.85,NNW,331,2.0,4.0,93,0.00,,,0.01,0,Wunderground v.1.15,2013-04-18 06:10:00,
2013-04-18 01:13:00,39.5,37.9,29.85,NNW,329,3.0,4.0,94,0.00,,,0.01,0,Wunderground v.1.15,2013-04-18 06:13:00,
2013-04-18 01:14:00,39.5,37.6,29.84,NNW,329,2.0,4.0,93,0.00,,,0.01,0,Wunderground v.1.15,2013-04-18 06:14:00,
2013-04-18 01:16:00,39.5,37.9,29.83,ENE,62,3.0,8.0,94,0.00,,,0.01,0,Wunderground v.1.15,2013-04-18 06:16:00,
2013-04-18 01:17:00,39.5,37.9,29.82,NE,50,3.0,11.0,94,0.00,,,0.01,0,Wunderground v.1.15,2013-04-18 06:17:00,
2013-04-18 01:19:00,39.6,38.0,29.82,NE,42,4.0,11.0,94,0.00,,,0.01,0,Wunderground v.1.15,2013-04-18 06:19:00,
2013-04-18 01:20:00,39.6,38.0,29.81,NE,38,4.0,6.0,94,0.00,,,0.01,0,Wunderground v.1.15,2013-04-18 06:20:00,
2013-04-18 01:21:00,39.6,38.0,29.80,ENE,61,4.0,11.0,94,0.00,,,0.01,0,Wunderground v.1.15,2013-04-18 06:21:00,
2013-04-18 01:25:00,39.6,38.0,29.78,ENE,61,7.0,11.0,94,0.00,,,0.01,0,Wunderground v.1.15,2013-04-18 06:25:00,
2013-04-18 01:26:00,39.6,38.0,29.78,NNE,24,7.0,11.0,94,0.00,,,0.01,0,Wunderground v.1.15,2013-04-18 06:26:00,
2013-04-18 01:27:00,39.6,38.0,29.77,NNE,26,6.0,11.0,94,0.00,,,0.01,0,Wunderground v.1.15,2013-04-18 06:27:00,
2013-04-18 01:30:00,39.6,38.0,29.78,NW,311,6.0,6.0,94,0.00,,,0.01,0,Wunderground v.1.15,2013-04-18 06:30:00,
2013-04-18 01:32:00,39.6,38.0,29.78,WNW,298,6.0,6.0,94,0.00,,,0.01,0,Wunderground v.1.15,2013-04-18 06:32:00,
2013-04-18 01:33:00,39.6,38.0,29.79,NNW,345,6.0,6.0,94,0.00,,,0.01,0,Wunderground v.1.15,2013-04-18 06:33:00,
2013-04-18 01:34:00,39.6,38.0,29.79,NE,44,5.0,6.0,94,0.00,,,0.01,0,Wunderground v.1.15,2013-04-18 06:34:00,
2013-04-18 01:37:00,39.6,38.0,29.80,NNW,333,4.0,6.0,94,0.00,,,0.01,0,Wunderground v.1.15,2013-04-18 06:37:00,
2013-04-18 01:41:00,39.7,38.1,29.81,NNE,28,2.0,3.0,94,0.00,,,0.01,0,Wunderground v.1.15,2013-04-18 06:41:00,
2013-04-18 01:42:00,39.7,38.1,29.81,NNW,344,2.0,3.0,94,0.00,,,0.01,0,Wunderground v.1.15,2013-04-18 06:42:00,
2013-04-18 01:43:00,39.7,38.1,29.81,WNW,298,2.0,4.0,94,0.00,,,0.01,0,Wunderground v.1.15,2013-04-18 06:43:00,
2013-04-18 01:46:00,39.8,38.2,29.81,NNW,336,2.0,4.0,94,0.00,,,0.01,0,Wunderground v.1.15,2013-04-18 06:46:00,
2013-04-18 01:48:00,39.8,38.2,29.80,NNE,28,2.0,4.0,94,0.00,,,0.01,0,Wunderground v.1.15,2013-04-18 06:48:00,
2013-04-18 01:49:00,39.8,38.2,29.80,North,355,3.0,4.0,94,0.00,,,0.01,0,Wunderground v.1.15,2013-04-18 06:49:00,
2013-04-18 01:50:00,39.8,38.2,29.80,NW,321,3.0,6.0,94,0.00,,,0.01,0,Wunderground v.1.15,2013-04-18 06:50:00,
2013-04-18 01:51:00,39.8,38.2,29.80,NNW,332,3.0,6.0,94,0.00,,,0.01,0,Wunderground v.1.15,2013-04-18 06:51:00,
2013-04-18 01:55:00,39.9,38.3,29.78,NNE,19,3.0,7.0,94,0.00,,,0.01,0,Wunderground v.1.15,2013-04-18 06:55:00,
2013-04-18 01:56:00,39.9,38.3,29.78,NNE,23,4.0,7.0,94,0.00,,,0.01,0,Wunderground v.1.15,2013-04-18 06:56:00,
2013-04-18 01:57:00,39.9,38.3,29.77,NNE,16,4.0,7.0,94,0.00,,,0.01,0,Wunderground v.1.15,2013-04-18 06:57:00,
2013-04-18 02:00:00,39.9,38.3,29.76,NE,38,4.0,4.0,94,0.00,,,0.01,0,Wunderground v.1.15,2013-04-18 07:00:00,
2013-04-18 02:01:00,39.9,38.3,29.76,ENE,63,4.0,6.0,94,0.00,,,0.01,0,Wunderground v.1.15,2013-04-18 07:01:00,
2013-04-18 02:03:00,39.9,38.3,29.76,NNE,23,4.0,6.0,94,0.00,,,0.01,0,Wunderground v.1.15,2013-04-18 07:03:00,
2013-04-18 02:06:00,39.9,38.3,29.76,ENE,72,4.0,6.0,94,0.00,,,0.01,0,Wunderground v.1.15,2013-04-18 07:06:00,
2013-04-18 02:07:00,39.9,38.3,29.76,ENE,59,4.0,6.0,94,0.00,,,0.01,0,Wunderground v.1.15,2013-04-18 07:07:00,
2013-04-18 02:08:00,39.9,38.3,29.77,ENE,59,3.0,6.0,94,0.00,,,0.01,0,Wunderground v.1.15,2013-04-18 07:08:00,
2013-04-18 02:12:00,39.9,38.3,29.77,ENE,59,2.0,2.0,94,0.00,,,0.01,0,Wunderground v.1.15,2013-04-18 07:12:00,
2013-04-18 02:13:00,39.9,38.3,29.77,ENE,59,1.0,2.0,94,0.00,,,0.01,0,Wunderground v.1.15,2013-04-18 07:13:00,
2013-04-18 02:14:00,39.9,38.3,29.78,ENE,59,1.0,2.0,94,0.00,,,0.01,0,Wunderground v.1.15,2013-04-18 07:14:00,
2013-04-18 02:16:00,39.9,38.3,29.78,ENE,59,1.0,2.0,94,0.00,,,0.01,0,Wunderground v.1.15,2013-04-18 07:16:00,
2013-04-18 02:18:00,40.0,38.4,29.78,ENE,59,0.0,2.0,94,0.00,,,0.01,0,Wunderground v.1.15,2013-04-18 07:18:00,
2013-04-18 02:19:00,40.0,38.4,29.78,ENE,59,0.0,2.0,94,0.00,,,0.01,0,Wunderground v.1.15,2013-04-18 07:19:00,
2013-04-18 02:22:00,40.0,38.4,29.78,ENE,59,0.0,0.0,94,0.00,,,0.01,0,Wunderground v.1.15,2013-04-18 07:22:00,
2013-04-18 02:23:00,40.0,38.4,29.78,ENE,59,0.0,0.0,94,0.00,,,0.01,0,Wunderground v.1.15,2013-04-18 07:23:00,
2013-04-18 02:24:00,40.0,38.4,29.78,ENE,59,0.0,0.0,94,0.00,,,0.01,0,Wunderground v.1.15,2013-04-18 07:24:00,
2013-04-18 02:25:00,40.0,38.4,29.78,ENE,59,0.0,2.0,94,0.00,,,0.01,0,Wunderground v.1.15,2013-04-18 07:25:00,
2013-04-18 02:29:00,40.0,38.4,29.78,North,5,1.0,2.0,94,0.00,,,0.01,0,Wunderground v.1.15,2013-04-18 07:29:00,
2013-04-18 02:30:00,40.0,38.4,29.77,North,5,1.0,2.0,94,0.00,,,0.01,0,Wunderground v.1.15,2013-04-18 07:30:00,
2013-04-18 02:32:00,40.1,38.5,29.76,North,5,1.0,4.0,94,0.00,,,0.01,0,Wunderground v.1.15,2013-04-18 07:32:00,
2013-04-18 02:34:00,40.1,38.5,29.77,North,5,2.0,4.0,94,0.00,,,0.01,0,Wunderground v.1.15,2013-04-18 07:34:00,
2013-04-18 02:37:00,40.1,38.5,29.76,NNE,17,2.0,5.0,94,0.00,,,0.01,0,Wunderground v.1.15,2013-04-18 07:37:00,
2013-04-18 02:38:00,40.1,38.5,29.76,NNE,17,2.0,5.0,94,0.00,,,0.01,0,Wunderground v.1.15,2013-04-18 07:38:00,
2013-04-18 02:40:00,40.1,38.5,29.76,NNE,15,3.0,3.0,94,0.00,,,0.01,0,Wunderground v.1.15,2013-04-18 07:40:00,
2013-04-18 02:42:00,40.1,38.5,29.76,NNE,21,3.0,4.0,94,0.00,,,0.01,0,Wunderground v.1.15,2013-04-18 07:42:00,
2013-04-18 02:43:00,40.1,38.5,29.77,NNE,21,2.0,4.0,94,0.00,,,0.01,0,Wunderground v.1.15,2013-04-18 07:43:00,
2013-04-18 02:48:00,40.1,38.5,29.78,NNE,26,1.0,4.0,94,0.00,,,0.01,0,Wunderground v.1.15,2013-04-18 07:48:00,
2013-04-18 02:49:00,40.1,38.5,29.78,NNE,26,1.0,4.0,94,0.00,,,0.01,0,Wunderground v.1.15,2013-04-18 07:49:00,
2013-04-18 02:54:00,40.2,38.6,29.79,North,351,0.0,1.0,94,0.00,,,0.01,0,Wunderground v.1.15,2013-04-18 07:54:00,
2013-04-18 02:55:00,40.2,38.6,29.79,North,351,0.0,1.0,94,0.00,,,0.01,0,Wunderground v.1.15,2013-04-18 07:55:00,
2013-04-18 02:58:00,40.2,38.6,29.80,North,351,0.0,1.0,94,0.00,,,0.01,0,Wunderground v.1.15,2013-04-18 07:58:00,
2013-04-18 02:59:00,40.2,38.6,29.80,North,351,0.0,1.0,94,0.00,,,0.01,0,Wunderground v.1.15,2013-04-18 07:59:00,
2013-04-18 03:00:00,40.2,38.6,29.80,North,351,0.0,0.0,94,0.00,,,0.01,0,Wunderground v.1.15,2013-04-18 08:00:00,
2013-04-18 03:04:00,40.3,38.7,29.80,North,351,0.0,0.0,94,0.00,,,0.01,0,Wunderground v.1.15,2013-04-18 08:04:00,
2013-04-18 03:05:00,40.3,38.7,29.80,North,351,0.0,0.0,94,0.00,,,0.01,0,Wunderground v.1.15,2013-04-18 08:05:00,
2013-04-18 03:06:00,40.3,38.7,29.80,North,351,0.0,0.0,94,0.00,,,0.01,0,Wunderground v.1.15,2013-04-18 08:06:00,
2013-04-18 03:11:00,40.3,38.7,29.80,North,351,0.0,2.0,94,0.00,,,0.01,0,Wunderground v.1.15,2013-04-18 08:11:00,
2013-04-18 03:12:00,40.3,38.7,29.80,North,351,0.0,2.0,94,0.00,,,0.01,0,Wunderground v.1.15,2013-04-18 08:12:00,
2013-04-18 03:13:00,40.3,38.7,29.79,North,351,0.0,2.0,94,0.00,,,0.01,0,Wunderground v.1.15,2013-04-18 08:13:00,
2013-04-18 03:17:00,40.4,38.8,29.79,NNE,22,1.0,2.0,94,0.00,,,0.01,0,Wunderground v.1.15,2013-04-18 08:17:00,
2013-04-18 03:18:00,40.4,38.8,29.79,NNE,22,1.0,2.0,94,0.00,,,0.01,0,Wunderground v.1.15,2013-04-18 08:18:00,
2013-04-18 03:23:00,40.4,38.8,29.78,NNE,16,1.0,2.0,94,0.00,,,0.01,0,Wunderground v.1.15,2013-04-18 08:23:00,
2013-04-18 03:24:00,40.4,38.8,29.78,NNW,328,1.0,3.0,94,0.00,,,0.01,0,Wunderground v.1.15,2013-04-18 08:24:00,
2013-04-18 03:28:00,40.4,38.8,29.78,NNW,329,2.0,3.0,94,0.00,,,0.01,0,Wunderground v.1.15,2013-04-18 08:28:00,
2013-04-18 03:31:00,40.3,38.7,29.78,NNW,329,2.0,2.0,94,0.00,,,0.01,0,Wunderground v.1.15,2013-04-18 08:31:00,
2013-04-18 03:32:00,40.3,38.7,29.78,NNW,329,2.0,2.0,94,0.00,,,0.01,0,Wunderground v.1.15,2013-04-18 08:32:00,
2013-04-18 03:34:00,40.3,38.7,29.78,NNW,329,2.0,2.0,94,0.00,,,0.01,0,Wunderground v.1.15,2013-04-18 08:34:00,
2013-04-18 03:35:00,40.3,38.7,29.77,NNW,329,2.0,2.0,94,0.00,,,0.01,0,Wunderground v.1.15,2013-04-18 08:35:00,
2013-04-18 03:36:00,40.3,38.7,29.77,NNW,329,2.0,2.0,94,0.00,,,0.01,0,Wunderground v.1.15,2013-04-18 08:36:00,
2013-04-18 03:41:00,40.2,38.6,29.77,NNW,329,2.0,3.0,94,0.00,,,0.01,0,Wunderground v.1.15,2013-04-18 08:41:00,
2013-04-18 03:42:00,40.2,38.6,29.77,NNW,329,2.0,3.0,94,0.00,,,0.01,0,Wunderground v.1.15,2013-04-18 08:42:00,
2013-04-18 03:43:00,40.2,38.6,29.77,NNW,329,2.0,3.0,94,0.00,,,0.01,0,Wunderground v.1.15,2013-04-18 08:43:00,
2013-04-18 03:44:00,40.2,38.6,29.77,NNW,329,2.0,3.0,94,0.00,,,0.01,0,Wunderground v.1.15,2013-04-18 08:44:00,
2013-04-18 03:46:00,40.2,38.6,29.77,NNW,329,2.0,3.0,94,0.00,,,0.01,0,Wunderground v.1.15,2013-04-18 08:46:00,
2013-04-18 03:47:00,40.1,38.5,29.77,NNW,331,3.0,4.0,94,0.00,,,0.01,0,Wunderground v.1.15,2013-04-18 08:47:00,
2013-04-18 03:49:00,40.1,38.5,29.76,NNW,331,3.0,4.0,94,0.00,,,0.01,0,Wunderground v.1.15,2013-04-18 08:49:00,
2013-04-18 03:50:00,40.1,38.5,29.76,NNW,331,2.0,2.0,94,0.00,,,0.01,0,Wunderground v.1.15,2013-04-18 08:50:00,
2013-04-18 03:51:00,40.1,38.5,29.76,NNW,331,2.0,2.0,94,0.00,,,0.01,0,Wunderground v.1.15,2013-04-18 08:51:00,
2013-04-18 03:54:00,40.1,38.5,29.75,North,355,2.0,4.0,94,0.00,,,0.01,0,Wunderground v.1.15,2013-04-18 08:54:00,
2013-04-18 03:55:00,40.0,38.4,29.75,North,355,2.0,4.0,94,0.00,,,0.01,0,Wunderground v.1.15,2013-04-18 08:55:00,
2013-04-18 03:56:00,40.0,38.4,29.75,North,355,2.0,4.0,94,0.00,,,0.01,0,Wunderground v.1.15,2013-04-18 08:56:00,
2013-04-18 03:57:00,40.0,38.4,29.75,North,355,2.0,4.0,94,0.00,,,0.01,0,Wunderground v.1.15,2013-04-18 08:57:00,
2013-04-18 04:01:00,39.9,38.3,29.75,NNW,341,2.0,4.0,94,0.00,,,0.01,0,Wunderground v.1.15,2013-04-18 09:01:00,
2013-04-18 04:02:00,39.9,38.3,29.75,NW,324,3.0,4.0,94,0.00,,,0.01,0,Wunderground v.1.15,2013-04-18 09:02:00,
2013-04-18 04:03:00,39.9,38.3,29.75,NNW,336,3.0,4.0,94,0.00,,,0.01,0,Wunderground v.1.15,2013-04-18 09:03:00,
2013-04-18 04:06:00,39.9,38.3,29.74,North,5,3.0,4.0,94,0.00,,,0.01,0,Wunderground v.1.15,2013-04-18 09:06:00,
2013-04-18 04:07:00,39.9,38.3,29.74,North,5,3.0,4.0,94,0.00,,,0.01,0,Wunderground v.1.15,2013-04-18 09:07:00,
2013-04-18 04:09:00,39.8,38.2,29.74,North,5,3.0,4.0,94,0.00,,,0.01,0,Wunderground v.1.15,2013-04-18 09:09:00,
2013-04-18 04:11:00,39.8,38.2,29.73,North,5,3.0,3.0,94,0.00,,,0.01,0,Wunderground v.1.15,2013-04-18 09:11:00,
2013-04-18 04:14:00,39.8,38.2,29.73,North,5,2.0,3.0,94,0.00,,,0.01,0,Wunderground v.1.15,2013-04-18 09:14:00,
2013-04-18 04:16:00,39.7,38.1,29.73,North,5,2.0,3.0,94,0.00,,,0.01,0,Wunderground v.1.15,2013-04-18 09:16:00,
2013-04-18 04:17:00,39.7,38.1,29.73,North,5,2.0,3.0,94,0.00,,,0.01,0,Wunderground v.1.15,2013-04-18 09:17:00,
2013-04-18 04:18:00,39.7,38.1,29.73,North,5,1.0,3.0,94,0.00,,,0.01,0,Wunderground v.1.15,2013-04-18 09:18:00,
2013-04-18 04:20:00,39.7,38.1,29.73,NNE,15,1.0,1.0,94,0.00,,,0.01,0,Wunderground v.1.15,2013-04-18 09:20:00,
2013-04-18 04:23:00,39.8,38.2,29.72,NNE,15,1.0,2.0,94,0.00,,,0.01,0,Wunderground v.1.15,2013-04-18 09:23:00,
2013-04-18 04:24:00,39.8,38.2,29.73,NNE,15,1.0,2.0,94,0.00,,,0.01,0,Wunderground v.1.15,2013-04-18 09:24:00,
2013-04-18 04:27:00,39.8,38.2,29.72,NNE,15,1.0,2.0,94,0.00,,,0.01,0,Wunderground v.1.15,2013-04-18 09:27:00,
2013-04-18 04:29:00,39.8,38.2,29.72,ENE,58,1.0,5.0,94,0.00,,,0.01,0,Wunderground v.1.15,2013-04-18 09:29:00,
2013-04-18 04:30:00,39.9,38.3,29.72,NE,54,2.0,2.0,94,0.00,,,0.01,0,Wunderground v.1.15,2013-04-18 09:30:00,
2013-04-18 04:31:00,39.9,38.3,29.72,NE,44,1.0,2.0,94,0.00,,,0.01,0,Wunderground v.1.15,2013-04-18 09:31:00,
2013-04-18 04:36:00,39.9,38.3,29.72,NE,56,2.0,3.0,94,0.00,,,0.01,0,Wunderground v.1.15,2013-04-18 09:36:00,
2013-04-18 04:37:00,39.9,38.3,29.72,NE,49,2.0,4.0,94,0.00,,,0.01,0,Wunderground v.1.15,2013-04-18 09:37:00,
2013-04-18 04:38:00,40.0,38.4,29.72,NNE,30,2.0,4.0,94,0.00,,,0.01,0,Wunderground v.1.15,2013-04-18 09:38:00,
2013-04-18 04:39:00,40.0,38.7,29.72,North,350,2.0,5.0,95,0.00,,,0.01,0,Wunderground v.1.15,2013-04-18 09:39:00,
2013-04-18 04:43:00,40.0,38.7,29.72,NNE,22,3.0,6.0,95,0.00,,,0.01,0,Wunderground v.1.15,2013-04-18 09:43:00,
2013-04-18 04:44:00,40.0,38.7,29.72,NNE,23,3.0,6.0,95,0.00,,,0.01,0,Wunderground v.1.15,2013-04-18 09:44:00,
2013-04-18 04:45:00,40.0,38.7,29.72,NNE,23,3.0,6.0,95,0.00,,,0.01,0,Wunderground v.1.15,2013-04-18 09:45:00,
2013-04-18 04:47:00,40.1,38.8,29.72,NNW,346,3.0,6.0,95,0.00,,,0.01,0,Wunderground v.1.15,2013-04-18 09:47:00,
2013-04-18 04:50:00,40.1,38.8,29.72,NW,324,3.0,3.0,95,0.00,,,0.01,0,Wunderground v.1.15,2013-04-18 09:50:00,
2013-04-18 04:52:00,40.1,38.8,29.72,NW,324,2.0,3.0,95,0.00,,,0.01,0,Wunderground v.1.15,2013-04-18 09:52:00,
2013-04-18 04:53:00,40.1,38.8,29.72,NNW,328,2.0,5.0,95,0.00,,,0.01,0,Wunderground v.1.15,2013-04-18 09:53:00,
2013-04-18 04:54:00,40.1,38.8,29.72,NNW,329,2.0,5.0,95,0.00,,,0.01,0,Wunderground v.1.15,2013-04-18 09:54:00,
2013-04-18 04:56:00,40.1,38.8,29.72,North,5,3.0,5.0,95,0.00,,,0.01,0,Wunderground v.1.15,2013-04-18 09:56:00,
2013-04-18 05:00:00,40.1,38.8,29.72,North,5,2.0,2.0,95,0.00,,,0.01,0,Wunderground v.1.15,2013-04-18 10:00:00,
2013-04-18 05:01:00,40.1,38.8,29.72,NW,319,2.0,3.0,95,0.00,,,0.01,0,Wunderground v.1.15,2013-04-18 10:01:00,
2013-04-18 05:02:00,40.1,38.8,29.72,NW,311,2.0,3.0,95,0.00,,,0.01,0,Wunderground v.1.15,2013-04-18 10:02:00,
2013-04-18 05:03:00,40.1,38.8,29.72,NW,321,2.0,5.0,95,0.00,,,0.01,0,Wunderground v.1.15,2013-04-18 10:03:00,
2013-04-18 05:05:00,40.1,38.8,29.72,NW,321,2.0,5.0,95,0.00,,,0.01,0,Wunderground v.1.15,2013-04-18 10:05:00,
2013-04-18 05:06:00,40.1,38.8,29.72,NW,321,2.0,5.0,95,0.00,,,0.01,0,Wunderground v.1.15,2013-04-18 10:06:00,
2013-04-18 05:08:00,40.1,38.8,29.72,NW,320,2.0,5.0,95,0.00,,,0.01,0,Wunderground v.1.15,2013-04-18 10:08:00,
2013-04-18 05:09:00,40.0,38.7,29.72,NW,320,2.0,5.0,95,0.00,,,0.01,0,Wunderground v.1.15,2013-04-18 10:09:00,
2013-04-18 05:13:00,40.0,38.7,29.72,NNW,333,2.0,5.0,95,0.00,,,0.01,0,Wunderground v.1.15,2013-04-18 10:13:00,
2013-04-18 05:14:00,39.9,38.6,29.72,North,355,2.0,5.0,95,0.00,,,0.01,0,Wunderground v.1.15,2013-04-18 10:14:00,
2013-04-18 05:15:00,40.0,38.7,29.72,North,355,2.0,5.0,95,0.00,,,0.01,0,Wunderground v.1.15,2013-04-18 10:15:00,
2013-04-18 05:16:00,40.0,38.7,29.72,NNW,343,2.0,6.0,95,0.00,,,0.01,0,Wunderground v.1.15,2013-04-18 10:16:00,
2013-04-18 05:20:00,39.9,38.6,29.71,NNW,343,3.0,3.0,95,0.00,,,0.01,0,Wunderground v.1.15,2013-04-18 10:20:00,
2013-04-18 05:21:00,39.9,38.6,29.71,NNW,331,3.0,4.0,95,0.00,,,0.01,0,Wunderground v.1.15,2013-04-18 10:21:00,
2013-04-18 05:22:00,39.9,38.6,29.71,NNW,331,3.0,4.0,95,0.00,,,0.01,0,Wunderground v.1.15,2013-04-18 10:22:00,
2013-04-18 05:26:00,39.8,38.5,29.71,NNW,331,3.0,4.0,95,0.00,,,0.01,0,Wunderground v.1.15,2013-04-18 10:26:00,
2013-04-18 05:27:00,39.8,38.5,29.71,NNW,331,3.0,4.0,95,0.00,,,0.01,0,Wunderground v.1.15,2013-04-18 10:27:00,
2013-04-18 05:29:00,39.9,38.6,29.70,NNW,331,3.0,4.0,95,0.00,,,0.01,0,Wunderground v.1.15,2013-04-18 10:29:00,
2013-04-18 05:31:00,39.8,38.5,29.70,NNW,336,3.0,3.0,95,0.00,,,0.01,0,Wunderground v.1.15,2013-04-18 10:31:00,
2013-04-18 05:34:00,39.8,38.5,29.69,NNW,336,2.0,3.0,95,0.00,,,0.01,0,Wunderground v.1.15,2013-04-18 10:34:00,
2013-04-18 05:35:00,39.8,38.5,29.69,NNW,336,2.0,3.0,95,0.00,,,0.01,0,Wunderground v.1.15,2013-04-18 10:35:00,
2013-04-18 05:36:00,39.8,38.5,29.69,NNW,336,2.0,3.0,95,0.00,,,0.01,0,Wunderground v.1.15,2013-04-18 10:36:00,
2013-04-18 05:40:00,39.8,38.5,29.70,NNW,336,3.0,3.0,95,0.00,,,0.01,0,Wunderground v.1.15,2013-04-18 10:40:00,
2013-04-18 05:42:00,39.8,38.5,29.70,NNW,336,3.0,3.0,95,0.00,,,0.01,0,Wunderground v.1.15,2013-04-18 10:42:00,
2013-04-18 05:45:00,39.8,38.5,29.71,NNW,330,3.0,3.0,95,0.00,,,0.01,0,Wunderground v.1.15,2013-04-18 10:45:00,
2013-04-18 05:48:00,39.8,38.5,29.70,NNW,329,3.0,4.0,95,0.00,,,0.01,0,Wunderground v.1.15,2013-04-18 10:48:00,
2013-04-18 05:49:00,39.8,38.5,29.70,NNW,329,2.0,4.0,95,0.00,,,0.01,0,Wunderground v.1.15,2013-04-18 10:49:00,
2013-04-18 05:50:00,39.8,38.5,29.71,NNW,329,2.0,2.0,95,0.00,,,0.01,0,Wunderground v.1.15,2013-04-18 10:50:00,
2013-04-18 05:54:00,39.8,38.5,29.71,NNW,329,2.0,4.0,95,0.00,,,0.02,0,Wunderground v.1.15,2013-04-18 10:54:00,
2013-04-18 05:55:00,39.8,38.5,29.71,NNW,329,2.0,4.0,95,0.00,,,0.02,0,Wunderground v.1.15,2013-04-18 10:55:00,
2013-04-18 05:58:00,39.8,38.5,29.71,North,355,2.0,4.0,95,0.00,,,0.02,0,Wunderground v.1.15,2013-04-18 10:58:00,
2013-04-18 05:59:00,39.8,38.5,29.71,North,355,2.0,4.0,95,0.00,,,0.02,0,Wunderground v.1.15,2013-04-18 10:59:00,
2013-04-18 06:00:00,39.8,38.5,29.71,North,355,2.0,2.0,95,0.00,,,0.02,0,Wunderground v.1.15,2013-04-18 11:00:00,
2013-04-18 06:01:00,39.8,38.5,29.71,NNW,334,2.0,2.0,95,0.00,,,0.02,0,Wunderground v.1.15,2013-04-18 11:01:00,
2013-04-18 06:02:00,39.8,38.5,29.71,NNW,333,2.0,4.0,95,0.07,,,0.03,0,Wunderground v.1.15,2013-04-18 11:02:00,
2013-04-18 06:06:00,39.8,38.5,29.71,NW,309,3.0,5.0,95,0.07,,,0.03,0,Wunderground v.1.15,2013-04-18 11:06:00,
2013-04-18 06:07:00,39.7,38.4,29.71,NW,315,3.0,5.0,95,0.07,,,0.03,0,Wunderground v.1.15,2013-04-18 11:07:00,
2013-04-18 06:09:00,39.8,38.5,29.72,NW,315,2.0,5.0,95,0.07,,,0.03,0,Wunderground v.1.15,2013-04-18 11:09:00,
2013-04-18 06:10:00,39.7,38.4,29.72,WNW,303,3.0,3.0,95,0.07,,,0.03,0,Wunderground v.1.15,2013-04-18 11:10:00,
2013-04-18 06:12:00,39.7,38.4,29.72,NNW,336,3.0,6.0,95,0.06,,,0.03,0,Wunderground v.1.15,2013-04-18 11:12:00,
2013-04-18 06:13:00,39.7,38.4,29.72,NNW,327,3.0,6.0,95,0.06,,,0.04,0,Wunderground v.1.15,2013-04-18 11:13:00,
2013-04-18 06:17:00,39.7,38.4,29.73,NW,321,2.0,6.0,95,0.06,,,0.04,0,Wunderground v.1.15,2013-04-18 11:17:00,
2013-04-18 06:19:00,39.7,38.4,29.73,NW,321,2.0,6.0,95,0.06,,,0.04,0,Wunderground v.1.15,2013-04-18 11:19:00,
2013-04-18 06:20:00,39.7,38.4,29.73,NW,321,2.0,2.0,95,0.06,,,0.04,0,Wunderground v.1.15,2013-04-18 11:20:00,
2013-04-18 06:22:00,39.7,38.4,29.73,NW,321,1.0,2.0,95,0.06,,,0.04,0,Wunderground v.1.15,2013-04-18 11:22:00,
2013-04-18 06:25:00,39.6,38.3,29.73,NW,321,1.0,3.0,95,0.05,,,0.04,0,Wunderground v.1.15,2013-04-18 11:25:00,
2013-04-18 06:26:00,39.6,38.3,29.73,NW,321,1.0,3.0,95,0.05,,,0.05,0,Wunderground v.1.15,2013-04-18 11:26:00,
2013-04-18 06:27:00,39.6,38.3,29.74,NW,321,1.0,4.0,95,0.05,,,0.05,0,Wunderground v.1.15,2013-04-18 11:27:00,
2013-04-18 06:29:00,39.6,38.3,29.74,NW,321,1.0,4.0,95,0.05,,,0.05,0,Wunderground v.1.15,2013-04-18 11:29:00,
2013-04-18 06:31:00,39.6,38.3,29.74,NW,310,1.0,5.0,95,0.05,,,0.05,0,Wunderground v.1.15,2013-04-18 11:31:00,
2013-04-18 06:34:00,39.5,38.2,29.74,NW,309,2.0,5.0,95,0.05,,,0.05,0,Wunderground v.1.15,2013-04-18 11:34:00,
2013-04-18 06:35:00,39.5,38.2,29.74,NW,310,2.0,5.0,95,0.05,,,0.05,0,Wunderground v.1.15,2013-04-18 11:35:00,
2013-04-18 06:37:00,39.5,38.2,29.74,NW,309,2.0,5.0,95,0.05,,,0.05,0,Wunderground v.1.15,2013-04-18 11:37:00,
2013-04-18 06:38:00,39.4,38.1,29.74,NW,309,2.0,5.0,95,0.05,,,0.05,0,Wunderground v.1.15,2013-04-18 11:38:00,
2013-04-18 06:41:00,39.3,38.0,29.74,NW,309,2.0,2.0,95,0.04,,,0.05,0,Wunderground v.1.15,2013-04-18 11:41:00,
2013-04-18 06:42:00,39.3,38.0,29.74,NW,308,2.0,3.0,95,0.04,,,0.05,0,Wunderground v.1.15,2013-04-18 11:42:00,
2013-04-18 06:43:00,39.3,38.0,29.74,NW,308,2.0,3.0,95,0.00,,,0.05,0,Wunderground v.1.15,2013-04-18 11:43:00,
2013-04-18 06:45:00,39.3,38.0,29.73,NW,308,2.0,3.0,95,0.00,,,0.05,0,Wunderground v.1.15,2013-04-18 11:45:00,
2013-04-18 06:46:00,39.2,37.9,29.73,NW,308,2.0,3.0,95,0.00,,,0.05,0,Wunderground v.1.15,2013-04-18 11:46:00,
2013-04-18 06:49:00,39.2,37.9,29.73,NW,317,2.0,3.0,95,0.00,,,0.05,0,Wunderground v.1.15,2013-04-18 11:49:00,
2013-04-18 06:51:00,39.1,37.8,29.73,NW,317,2.0,2.0,95,0.00,,,0.05,5,Wunderground v.1.15,2013-04-18 11:51:00,
2013-04-18 06:52:00,39.1,37.8,29.73,NW,317,2.0,2.0,95,0.00,,,0.05,5,Wunderground v.1.15,2013-04-18 11:52:00,
2013-04-18 06:53:00,39.1,37.8,29.73,NW,317,2.0,2.0,95,0.00,,,0.05,5,Wunderground v.1.15,2013-04-18 11:53:00,
2013-04-18 06:54:00,39.1,37.8,29.73,NW,317,2.0,3.0,95,0.00,,,0.05,5,Wunderground v.1.15,2013-04-18 11:54:00,
2013-04-18 06:56:00,39.1,37.8,29.73,NW,319,2.0,3.0,95,0.00,,,0.05,5,Wunderground v.1.15,2013-04-18 11:56:00,
2013-04-18 06:59:00,39.0,37.7,29.72,NW,324,2.0,3.0,95,0.00,,,0.05,5,Wunderground v.1.15,2013-04-18 11:59:00,
2013-04-18 07:00:00,39.0,37.7,29.72,NW,324,2.0,2.0,95,0.00,,,0.05,5,Wunderground v.1.15,2013-04-18 12:00:00,
2013-04-18 07:01:00,39.0,37.7,29.72,NW,326,2.0,5.0,95,0.00,,,0.05,5,Wunderground v.1.15,2013-04-18 12:01:00,
2013-04-18 07:03:00,39.0,37.7,29.72,NNW,327,2.0,5.0,95,0.00,,,0.05,5,Wunderground v.1.15,2013-04-18 12:03:00,
2013-04-18 07:04:00,39.0,37.7,29.72,NNW,327,2.0,5.0,95,0.00,,,0.05,5,Wunderground v.1.15,2013-04-18 12:04:00,
2013-04-18 07:06:00,39.0,37.7,29.72,North,5,2.0,5.0,95,0.00,,,0.05,7,Wunderground v.1.15,2013-04-18 12:06:00,
2013-04-18 07:08:00,38.9,37.6,29.72,North,5,2.0,5.0,95,0.00,,,0.05,7,Wunderground v.1.15,2013-04-18 12:08:00,
2013-04-18 07:13:00,38.9,37.6,29.72,North,360,2.0,2.0,95,0.00,,,0.05,7,Wunderground v.1.15,2013-04-18 12:13:00,
2013-04-18 07:15:00,39.0,37.7,29.72,North,360,2.0,3.0,95,0.00,,,0.05,7,Wunderground v.1.15,2013-04-18 12:15:00,
2013-04-18 07:17:00,38.9,37.6,29.72,NNE,33,2.0,7.0,95,0.00,,,0.05,9,Wunderground v.1.15,2013-04-18 12:17:00,
2013-04-18 07:18:00,38.9,37.6,29.72,NNE,15,3.0,7.0,95,0.00,,,0.05,9,Wunderground v.1.15,2013-04-18 12:18:00,
2013-04-18 07:23:00,38.9,37.6,29.72,North,5,3.0,3.0,95,0.00,,,0.05,11,Wunderground v.1.15,2013-04-18 12:23:00,
2013-04-18 07:24:00,38.9,37.6,29.72,North,5,3.0,3.0,95,0.00,,,0.05,12,Wunderground v.1.15,2013-04-18 12:24:00,
2013-04-18 07:25:00,38.9,37.6,29.72,NNE,19,3.0,4.0,95,0.00,,,0.05,12,Wunderground v.1.15,2013-04-18 12:25:00,
2013-04-18 07:30:00,38.8,37.5,29.72,NE,40,2.0,2.0,95,0.00,,,0.06,14,Wunderground v.1.15,2013-04-18 12:30:00,
2013-04-18 07:31:00,38.8,37.5,29.72,NE,40,2.0,2.0,95,0.00,,,0.06,14,Wunderground v.1.15,2013-04-18 12:31:00,
2013-04-18 07:32:00,38.8,37.5,29.72,NE,40,2.0,2.0,95,0.00,,,0.06,14,Wunderground v.1.15,2013-04-18 12:32:00,
2013-04-18 07:36:00,38.9,37.6,29.72,NE,41,1.0,2.0,95,0.00,,,0.06,16,Wunderground v.1.15,2013-04-18 12:36:00,
2013-04-18 07:37:00,38.8,37.5,29.72,NE,56,1.0,3.0,95,0.00,,,0.06,16,Wunderground v.1.15,2013-04-18 12:37:00,
2013-04-18 07:38:00,38.8,37.5,29.72,ENE,59,1.0,3.0,95,0.00,,,0.06,16,Wunderground v.1.15,2013-04-18 12:38:00,
2013-04-18 07:39:00,38.8,37.5,29.72,ENE,59,1.0,4.0,95,0.00,,,0.06,16,Wunderground v.1.15,2013-04-18 12:39:00,
2013-04-18 07:40:00,38.8,37.5,29.72,ENE,59,1.0,1.0,95,0.06,,,0.07,18,Wunderground v.1.15,2013-04-18 12:40:00,
2013-04-18 07:43:00,38.8,37.5,29.72,ENE,59,1.0,1.0,95,0.06,,,0.07,19,Wunderground v.1.15,2013-04-18 12:43:00,
2013-04-18 07:47:00,38.9,37.6,29.72,ENE,59,1.0,3.0,95,0.06,,,0.07,21,Wunderground v.1.15,2013-04-18 12:47:00,
2013-04-18 07:48:00,38.9,37.6,29.72,NNE,32,1.0,3.0,95,0.06,,,0.07,19,Wunderground v.1.15,2013-04-18 12:48:00,
2013-04-18 07:50:00,38.9,37.6,29.73,NNE,32,1.0,1.0,95,0.06,,,0.07,19,Wunderground v.1.15,2013-04-18 12:50:00,
2013-04-18 07:52:00,38.9,37.6,29.73,NW,321,1.0,2.0,95,0.05,,,0.07,14,Wunderground v.1.15,2013-04-18 12:52:00,
2013-04-18 07:54:00,38.9,37.6,29.73,NW,319,1.0,4.0,95,0.04,,,0.07,14,Wunderground v.1.15,2013-04-18 12:54:00,
2013-04-18 07:56:00,38.9,37.6,29.74,NW,304,2.0,4.0,95,0.04,,,0.07,14,Wunderground v.1.15,2013-04-18 12:56:00,
2013-04-18 07:57:00,38.9,37.6,29.74,NW,304,2.0,4.0,95,0.00,,,0.07,14,Wunderground v.1.15,2013-04-18 12:57:00,
2013-04-18 07:59:00,38.9,37.6,29.74,NW,304,2.0,4.0,95,0.00,,,0.07,19,Wunderground v.1.15,2013-04-18 12:59:00,
2013-04-18 08:03:00,38.8,37.5,29.74,NW,304,2.0,2.0,95,0.00,,,0.07,19,Wunderground v.1.15,2013-04-18 13:03:00,
2013-04-18 08:04:00,38.8,37.5,29.74,NW,304,2.0,2.0,95,0.00,,,0.07,18,Wunderground v.1.15,2013-04-18 13:04:00,
2013-04-18 08:05:00,38.8,37.5,29.75,WNW,302,2.0,2.0,95,0.00,,,0.07,18,Wunderground v.1.15,2013-04-18 13:05:00,
2013-04-18 08:06:00,38.8,37.5,29.75,NW,306,2.0,3.0,95,0.00,,,0.08,16,Wunderground v.1.15,2013-04-18 13:06:00,
2013-04-18 08:10:00,38.8,37.5,29.75,WNW,302,2.0,2.0,95,0.00,,,0.08,16,Wunderground v.1.15,2013-04-18 13:10:00,
2013-04-18 08:11:00,38.8,37.5,29.75,WNW,282,3.0,3.0,95,0.00,,,0.08,18,Wunderground v.1.15,2013-04-18 13:11:00,
2013-04-18 08:12:00,38.8,37.5,29.75,WNW,300,3.0,3.0,95,0.09,,,0.09,19,Wunderground v.1.15,2013-04-18 13:12:00,
2013-04-18 08:15:00,38.8,37.5,29.76,WNW,298,2.0,3.0,95,0.09,,,0.09,19,Wunderground v.1.15,2013-04-18 13:15:00,
2013-04-18 08:16:00,38.8,37.5,29.75,WNW,298,2.0,3.0,95,0.16,,,0.10,21,Wunderground v.1.15,2013-04-18 13:16:00,
2013-04-18 08:20:00,38.8,37.5,29.75,WNW,298,2.0,2.0,95,0.15,,,0.11,23,Wunderground v.1.15,2013-04-18 13:20:00,
2013-04-18 08:22:00,38.8,37.5,29.75,WNW,298,1.0,2.0,95,0.23,,,0.11,26,Wunderground v.1.15,2013-04-18 13:22:00,
2013-04-18 08:23:00,38.8,37.5,29.75,WNW,298,1.0,2.0,95,0.23,,,0.12,26,Wunderground v.1.15,2013-04-18 13:23:00,
2013-04-18 08:25:00,38.8,37.5,29.75,WNW,298,1.0,2.0,95,0.23,,,0.13,30,Wunderground v.1.15,2013-04-18 13:25:00,
2013-04-18 08:27:00,38.8,37.5,29.75,WNW,298,1.0,3.0,95,0.23,,,0.13,35,Wunderground v.1.15,2013-04-18 13:27:00,
2013-04-18 08:29:00,38.7,37.4,29.75,WNW,298,1.0,3.0,95,0.15,,,0.13,39,Wunderground v.1.15,2013-04-18 13:29:00,
2013-04-18 08:33:00,38.7,37.4,29.74,North,355,1.0,4.0,95,0.07,,,0.13,49,Wunderground v.1.15,2013-04-18 13:33:00,
2013-04-18 08:37:00,38.8,37.5,29.73,NW,320,1.0,4.0,95,0.06,,,0.14,60,Wunderground v.1.15,2013-04-18 13:37:00,
2013-04-18 08:38:00,38.8,37.5,29.73,NW,320,1.0,4.0,95,0.06,,,0.14,62,Wunderground v.1.15,2013-04-18 13:38:00,
2013-04-18 08:39:00,38.8,37.5,29.73,NW,320,2.0,4.0,95,0.06,,,0.14,62,Wunderground v.1.15,2013-04-18 13:39:00,
2013-04-18 08:43:00,38.7,37.4,29.71,NNE,23,3.0,4.0,95,0.06,,,0.14,70,Wunderground v.1.15,2013-04-18 13:43:00,
2013-04-18 08:44:00,38.7,37.4,29.71,NNE,22,2.0,4.0,95,0.06,,,0.14,70,Wunderground v.1.15,2013-04-18 13:44:00,
2013-04-18 08:45:00,38.8,37.5,29.71,NNE,18,2.0,4.0,95,0.06,,,0.14,77,Wunderground v.1.15,2013-04-18 13:45:00,
2013-04-18 08:47:00,38.8,37.5,29.70,North,5,3.0,5.0,95,0.05,,,0.14,83,Wunderground v.1.15,2013-04-18 13:47:00,
2013-04-18 08:49:00,38.8,37.5,29.69,NNE,21,3.0,5.0,95,0.04,,,0.14,91,Wunderground v.1.15,2013-04-18 13:49:00,
2013-04-18 08:54:00,38.8,37.5,29.66,NE,53,4.0,8.0,95,0.00,,,0.14,120,Wunderground v.1.15,2013-04-18 13:54:00,
2013-04-18 08:55:00,38.8,37.5,29.65,NE,53,5.0,8.0,95,0.00,,,0.14,123,Wunderground v.1.15,2013-04-18 13:55:00,
2013-04-18 08:56:00,38.7,37.4,29.65,NE,42,5.0,8.0,95,0.00,,,0.14,125,Wunderground v.1.15,2013-04-18 13:56:00,
2013-04-18 08:57:00,38.7,37.4,29.64,NE,52,5.0,8.0,95,0.00,,,0.14,130,Wunderground v.1.15,2013-04-18 13:57:00,
2013-04-18 09:00:00,38.7,37.4,29.62,ENE,72,6.0,10.0,95,0.00,,,0.14,134,Wunderground v.1.15,2013-04-18 14:00:00,
2013-04-18 09:02:00,38.7,37.4,29.60,ESE,107,7.0,10.0,95,0.00,,,0.14,132,Wunderground v.1.15,2013-04-18 14:02:00,
2013-04-18 09:03:00,38.7,37.4,29.60,East,101,7.0,11.0,95,0.00,,,0.14,132,Wunderground v.1.15,2013-04-18 14:03:00,
2013-04-18 09:04:00,38.7,37.4,29.59,ENE,75,7.0,11.0,95,0.00,,,0.14,134,Wunderground v.1.15,2013-04-18 14:04:00,
2013-04-18 09:07:00,38.7,37.4,29.60,NW,320,7.0,11.0,95,0.00,,,0.14,130,Wunderground v.1.15,2013-04-18 14:07:00,
2013-04-18 09:08:00,38.7,37.4,29.60,NNW,338,7.0,11.0,95,0.00,,,0.14,114,Wunderground v.1.15,2013-04-18 14:08:00,
2013-04-18 09:09:00,38.8,37.5,29.60,NNW,338,6.0,11.0,95,0.00,,,0.14,114,Wunderground v.1.15,2013-04-18 14:09:00,
2013-04-18 09:11:00,38.8,37.5,29.60,SE,137,6.0,6.0,95,0.00,,,0.14,178,Wunderground v.1.15,2013-04-18 14:11:00,
2013-04-18 09:14:00,38.9,37.6,29.60,NNE,12,5.0,9.0,95,0.00,,,0.14,195,Wunderground v.1.15,2013-04-18 14:14:00,
2013-04-18 09:15:00,38.9,37.6,29.60,North,355,4.0,9.0,95,0.00,,,0.14,162,Wunderground v.1.15,2013-04-18 14:15:00,
2013-04-18 09:19:00,39.1,37.8,29.60,NNW,329,5.0,9.0,95,0.00,,,0.14,121,Wunderground v.1.15,2013-04-18 14:19:00,
2013-04-18 09:20:00,39.2,37.9,29.59,North,10,5.0,5.0,95,0.00,,,0.14,158,Wunderground v.1.15,2013-04-18 14:20:00,
2013-04-18 09:22:00,39.2,37.9,29.58,North,355,6.0,8.0,95,0.00,,,0.14,181,Wunderground v.1.15,2013-04-18 14:22:00,
2013-04-18 09:23:00,39.2,37.9,29.59,North,355,6.0,8.0,95,0.00,,,0.14,185,Wunderground v.1.15,2013-04-18 14:23:00,
2013-04-18 09:24:00,39.3,38.0,29.59,NW,322,5.0,8.0,95,0.00,,,0.14,181,Wunderground v.1.15,2013-04-18 14:24:00,
2013-04-18 09:27:00,39.5,38.2,29.60,NW,309,6.0,9.0,95,0.00,,,0.14,174,Wunderground v.1.15,2013-04-18 14:27:00,
2013-04-18 09:28:00,39.5,38.2,29.60,West,259,6.0,9.0,95,0.00,,,0.14,160,Wunderground v.1.15,2013-04-18 14:28:00,
2013-04-18 09:29:00,39.5,38.2,29.60,NW,304,6.0,9.0,95,0.00,,,0.14,144,Wunderground v.1.15,2013-04-18 14:29:00,
2013-04-18 09:30:00,39.5,38.2,29.61,NW,324,6.0,6.0,95,0.00,,,0.14,137,Wunderground v.1.15,2013-04-18 14:30:00,
2013-04-18 09:33:00,39.7,38.1,29.62,North,350,5.0,7.0,94,0.00,,,0.14,105,Wunderground v.1.15,2013-04-18 14:33:00,
2013-04-18 09:34:00,39.7,38.1,29.62,WNW,302,6.0,7.0,94,0.00,,,0.14,104,Wunderground v.1.15,2013-04-18 14:34:00,
2013-04-18 09:35:00,39.6,38.0,29.62,NW,322,5.0,7.0,94,0.00,,,0.14,105,Wunderground v.1.15,2013-04-18 14:35:00,
2013-04-18 09:37:00,39.6,38.0,29.62,North,355,5.0,7.0,94,0.00,,,0.14,121,Wunderground v.1.15,2013-04-18 14:37:00,
2013-04-18 09:40:00,39.7,38.1,29.63,NW,326,5.0,5.0,94,0.00,,,0.14,104,Wunderground v.1.15,2013-04-18 14:40:00,
2013-04-18 09:41:00,39.7,38.1,29.63,WNW,303,5.0,6.0,94,0.00,,,0.14,109,Wunderground v.1.15,2013-04-18 14:41:00,
2013-04-18 09:42:00,39.6,38.0,29.63,NW,311,5.0,6.0,94,0.00,,,0.14,118,Wunderground v.1.15,2013-04-18 14:42:00,
2013-04-18 09:43:00,39.7,38.1,29.63,NW,310,5.0,6.0,94,0.00,,,0.14,120,Wunderground v.1.15,2013-04-18 14:43:00,
2013-04-18 09:45:00,39.7,38.1,29.65,WNW,288,4.0,6.0,94,0.00,,,0.14,102,Wunderground v.1.15,2013-04-18 14:45:00,
2013-04-18 09:48:00,39.9,38.3,29.65,West,272,3.0,6.0,94,0.00,,,0.14,118,Wunderground v.1.15,2013-04-18 14:48:00,
2013-04-18 09:49:00,39.9,38.3,29.65,West,277,3.0,6.0,94,0.00,,,0.14,127,Wunderground v.1.15,2013-04-18 14:49:00,
2013-04-18 09:52:00,39.9,38.3,29.65,West,281,2.0,4.0,94,0.00,,,0.14,137,Wunderground v.1.15,2013-04-18 14:52:00,
2013-04-18 09:54:00,39.9,38.3,29.67,WNW,297,2.0,4.0,94,0.00,,,0.14,114,Wunderground v.1.15,2013-04-18 14:54:00,
2013-04-18 09:57:00,39.9,38.3,29.66,WNW,290,2.0,4.0,94,0.00,,,0.14,123,Wunderground v.1.15,2013-04-18 14:57:00,
2013-04-18 09:59:00,40.0,38.1,29.65,WNW,294,2.0,4.0,93,0.00,,,0.14,146,Wunderground v.1.15,2013-04-18 14:59:00,
2013-04-18 10:00:00,40.0,38.1,29.65,WNW,303,2.0,3.0,93,0.00,,,0.14,141,Wunderground v.1.15,2013-04-18 15:00:00,
2013-04-18 10:03:00,40.2,38.3,29.66,NW,304,2.0,3.0,93,0.00,,,0.14,132,Wunderground v.1.15,2013-04-18 15:03:00,
2013-04-18 10:06:00,40.3,38.4,29.65,NNW,333,1.0,3.0,93,0.00,,,0.14,155,Wunderground v.1.15,2013-04-18 15:06:00,
2013-04-18 10:08:00,40.3,38.4,29.66,NNW,339,2.0,3.0,93,0.00,,,0.14,144,Wunderground v.1.15,2013-04-18 15:08:00,
2013-04-18 10:09:00,40.3,38.4,29.66,NNW,339,2.0,3.0,93,0.00,,,0.14,146,Wunderground v.1.15,2013-04-18 15:09:00,
2013-04-18 10:10:00,40.3,38.4,29.66,NNW,339,2.0,2.0,93,0.00,,,0.14,153,Wunderground v.1.15,2013-04-18 15:10:00,
2013-04-18 10:13:00,40.4,38.5,29.66,NNE,16,2.0,5.0,93,0.00,,,0.14,197,Wunderground v.1.15,2013-04-18 15:13:00,
2013-04-18 10:15:00,40.4,38.5,29.66,NE,51,2.0,5.0,93,0.00,,,0.14,192,Wunderground v.1.15,2013-04-18 15:15:00,
2013-04-18 10:16:00,40.5,38.6,29.66,NE,55,3.0,5.0,93,0.00,,,0.14,200,Wunderground v.1.15,2013-04-18 15:16:00,
2013-04-18 10:20:00,40.5,38.4,29.66,North,355,3.0,3.0,92,0.00,,,0.14,260,Wunderground v.1.15,2013-04-18 15:20:00,
2013-04-18 10:21:00,40.5,38.4,29.66,North,355,3.0,3.0,92,0.00,,,0.14,211,Wunderground v.1.15,2013-04-18 15:21:00,
2013-04-18 10:22:00,40.6,38.5,29.66,North,355,3.0,3.0,92,0.00,,,0.14,218,Wunderground v.1.15,2013-04-18 15:22:00,
2013-04-18 10:23:00,40.8,38.7,29.65,North,355,3.0,3.0,92,0.00,,,0.14,230,Wunderground v.1.15,2013-04-18 15:23:00,
2013-04-18 10:25:00,41.0,38.9,29.66,North,355,2.0,3.0,92,0.00,,,0.14,181,Wunderground v.1.15,2013-04-18 15:25:00,
2013-04-18 10:27:00,41.1,39.0,29.65,North,355,1.0,3.0,92,0.00,,,0.14,149,Wunderground v.1.15,2013-04-18 15:27:00,
2013-04-18 10:32:00,41.0,38.9,29.65,North,355,1.0,1.0,92,0.00,,,0.14,148,Wunderground v.1.15,2013-04-18 15:32:00,
2013-04-18 10:33:00,40.9,40.1,29.65,North,355,1.0,1.0,97,0.00,,,0.14,142,Wunderground v.1.15,2013-04-18 15:33:00,
2013-04-18 10:34:00,40.9,38.5,29.65,North,355,1.0,1.0,91,0.00,,,0.14,142,Wunderground v.1.15,2013-04-18 15:34:00,
2013-04-18 10:37:00,41.0,40.2,29.65,North,355,1.0,1.0,97,0.00,,,0.14,148,Wunderground v.1.15,2013-04-18 15:37:00,
2013-04-18 10:40:00,41.0,38.6,29.64,North,355,1.0,3.0,91,0.00,,,0.14,155,Wunderground v.1.15,2013-04-18 15:40:00,
2013-04-18 10:41:00,40.9,38.5,29.64,North,355,1.0,3.0,91,0.00,,,0.14,158,Wunderground v.1.15,2013-04-18 15:41:00,
2013-04-18 10:42:00,40.9,38.5,29.64,North,355,1.0,3.0,91,0.00,,,0.14,169,Wunderground v.1.15,2013-04-18 15:42:00,
2013-04-18 10:44:00,40.9,38.5,29.64,North,355,1.0,3.0,91,0.00,,,0.14,153,Wunderground v.1.15,2013-04-18 15:44:00,
2013-04-18 10:46:00,41.0,38.6,29.64,North,355,1.0,3.0,91,0.00,,,0.14,155,Wunderground v.1.15,2013-04-18 15:46:00,
2013-04-18 10:50:00,41.1,38.7,29.65,North,355,1.0,1.0,91,0.00,,,0.14,139,Wunderground v.1.15,2013-04-18 15:50:00,
2013-04-18 10:52:00,41.1,38.7,29.64,North,355,1.0,1.0,91,0.00,,,0.14,137,Wunderground v.1.15,2013-04-18 15:52:00,
2013-04-18 10:54:00,41.2,38.8,29.63,North,355,1.0,3.0,91,0.00,,,0.14,169,Wunderground v.1.15,2013-04-18 15:54:00,
2013-04-18 10:56:00,41.3,38.9,29.63,North,355,2.0,4.0,91,0.00,,,0.14,151,Wunderground v.1.15,2013-04-18 15:56:00,
2013-04-18 10:57:00,41.3,38.9,29.63,NW,306,2.0,4.0,91,0.00,,,0.14,148,Wunderground v.1.15,2013-04-18 15:57:00,
2013-04-18 11:00:00,41.2,38.8,29.63,NW,308,2.0,2.0,91,0.00,,,0.14,151,Wunderground v.1.15,2013-04-18 16:00:00,
2013-04-18 11:02:00,41.3,39.2,29.63,NNW,328,2.0,4.0,92,0.00,,,0.14,178,Wunderground v.1.15,2013-04-18 16:02:00,
2013-04-18 11:03:00,41.3,38.9,29.63,NNW,328,3.0,4.0,91,0.00,,,0.14,186,Wunderground v.1.15,2013-04-18 16:03:00,
2013-04-18 11:05:00,41.1,38.7,29.63,NNW,328,3.0,4.0,91,0.00,,,0.14,209,Wunderground v.1.15,2013-04-18 16:05:00,
2013-04-18 11:08:00,41.1,38.7,29.63,NNW,328,2.0,4.0,91,0.00,,,0.14,220,Wunderground v.1.15,2013-04-18 16:08:00,
2013-04-18 11:09:00,41.2,38.8,29.64,NNW,328,3.0,4.0,91,0.00,,,0.14,223,Wunderground v.1.15,2013-04-18 16:09:00,
2013-04-18 11:10:00,41.2,38.8,29.64,NNW,328,3.0,3.0,91,0.00,,,0.14,200,Wunderground v.1.15,2013-04-18 16:10:00,
2013-04-18 11:12:00,41.3,38.9,29.64,NNW,328,3.0,3.0,91,0.00,,,0.14,151,Wunderground v.1.15,2013-04-18 16:12:00,
2013-04-18 11:13:00,41.4,39.0,29.64,NNW,328,3.0,3.0,91,0.00,,,0.14,156,Wunderground v.1.15,2013-04-18 16:13:00,
2013-04-18 11:15:00,41.4,39.0,29.64,NNW,331,3.0,4.0,91,0.00,,,0.14,171,Wunderground v.1.15,2013-04-18 16:15:00,
2013-04-18 11:16:00,41.4,39.0,29.64,NNW,338,3.0,4.0,91,0.00,,,0.14,213,Wunderground v.1.15,2013-04-18 16:16:00,
2013-04-18 11:19:00,41.4,39.0,29.64,NNW,329,3.0,4.0,91,0.00,,,0.14,251,Wunderground v.1.15,2013-04-18 16:19:00,
2013-04-18 11:20:00,41.4,39.0,29.64,NNW,329,3.0,4.0,91,0.00,,,0.14,218,Wunderground v.1.15,2013-04-18 16:20:00,
2013-04-18 11:22:00,41.4,39.0,29.64,NNW,331,3.0,4.0,91,0.00,,,0.14,165,Wunderground v.1.15,2013-04-18 16:22:00,
2013-04-18 11:24:00,41.5,39.1,29.64,NNW,328,4.0,8.0,91,0.00,,,0.14,204,Wunderground v.1.15,2013-04-18 16:24:00,
2013-04-18 11:25:00,41.4,39.0,29.64,NNW,343,4.0,8.0,91,0.00,,,0.14,188,Wunderground v.1.15,2013-04-18 16:25:00,
2013-04-18 11:27:00,41.4,39.0,29.65,NNW,329,4.0,8.0,91,0.00,,,0.14,181,Wunderground v.1.15,2013-04-18 16:27:00,
2013-04-18 11:28:00,41.4,39.0,29.64,NNW,329,4.0,8.0,91,0.00,,,0.14,181,Wunderground v.1.15,2013-04-18 16:28:00,
2013-04-18 11:29:00,41.4,39.0,29.64,NNW,329,4.0,8.0,91,0.00,,,0.14,181,Wunderground v.1.15,2013-04-18 16:29:00,
2013-04-18 11:30:00,41.5,39.1,29.64,NNW,329,3.0,3.0,91,0.00,,,0.14,195,Wunderground v.1.15,2013-04-18 16:30:00,
2013-04-18 11:34:00,41.5,39.1,29.63,NNW,328,3.0,4.0,91,0.00,,,0.14,155,Wunderground v.1.15,2013-04-18 16:34:00,
2013-04-18 11:35:00,41.5,39.1,29.63,NW,321,3.0,4.0,91,0.00,,,0.14,158,Wunderground v.1.15,2013-04-18 16:35:00,
2013-04-18 11:39:00,41.5,39.1,29.62,NNW,340,3.0,6.0,91,0.00,,,0.14,158,Wunderground v.1.15,2013-04-18 16:39:00,
2013-04-18 11:40:00,41.5,39.1,29.62,NNW,328,4.0,4.0,91,0.00,,,0.14,153,Wunderground v.1.15,2013-04-18 16:40:00,
2013-04-18 11:45:00,41.6,39.2,29.62,NNW,331,3.0,4.0,91,0.00,,,0.14,151,Wunderground v.1.15,2013-04-18 16:45:00,
2013-04-18 11:46:00,41.6,39.2,29.62,NNW,331,3.0,4.0,91,0.00,,,0.14,151,Wunderground v.1.15,2013-04-18 16:46:00,
2013-04-18 11:49:00,41.7,39.3,29.63,NNW,331,2.0,4.0,91,0.00,,,0.14,139,Wunderground v.1.15,2013-04-18 16:49:00,
2013-04-18 11:50:00,41.8,39.4,29.62,ENE,67,2.0,3.0,91,0.00,,,0.14,139,Wunderground v.1.15,2013-04-18 16:50:00,
2013-04-18 11:52:00,41.8,39.4,29.62,ENE,63,2.0,4.0,91,0.00,,,0.14,132,Wunderground v.1.15,2013-04-18 16:52:00,
2013-04-18 11:54:00,41.8,39.4,29.62,NE,52,2.0,4.0,91,0.00,,,0.14,128,Wunderground v.1.15,2013-04-18 16:54:00,
2013-04-18 11:56:00,41.7,39.3,29.62,NE,52,2.0,4.0,91,0.00,,,0.14,128,Wunderground v.1.15,2013-04-18 16:56:00,
2013-04-18 11:57:00,41.9,39.5,29.62,NE,52,2.0,4.0,91,0.00,,,0.14,127,Wunderground v.1.15,2013-04-18 16:57:00,
2013-04-18 11:59:00,41.9,39.5,29.62,NNW,334,2.0,4.0,91,0.00,,,0.14,123,Wunderground v.1.15,2013-04-18 16:59:00,
2013-04-18 12:00:00,41.8,39.4,29.63,NNW,333,2.0,2.0,91,0.00,,,0.14,118,Wunderground v.1.15,2013-04-18 17:00:00,
2013-04-18 12:03:00,41.8,39.4,29.64,NW,313,1.0,2.0,91,0.00,,,0.14,100,Wunderground v.1.15,2013-04-18 17:03:00,
2013-04-18 12:04:00,41.8,39.4,29.64,NW,313,1.0,2.0,91,0.00,,,0.14,100,Wunderground v.1.15,2013-04-18 17:04:00,
2013-04-18 12:07:00,41.9,39.5,29.65,NW,313,1.0,2.0,91,0.00,,,0.14,84,Wunderground v.1.15,2013-04-18 17:07:00,
2013-04-18 12:09:00,41.9,39.5,29.64,NW,314,1.0,3.0,91,0.00,,,0.14,83,Wunderground v.1.15,2013-04-18 17:09:00,
2013-04-18 12:10:00,41.8,39.4,29.64,NW,314,1.0,3.0,91,0.00,,,0.14,79,Wunderground v.1.15,2013-04-18 17:10:00,
2013-04-18 12:12:00,41.7,39.3,29.64,NW,314,1.0,3.0,91,0.00,,,0.14,97,Wunderground v.1.15,2013-04-18 17:12:00,
2013-04-18 12:15:00,41.7,39.3,29.64,NW,314,2.0,3.0,91,0.00,,,0.14,104,Wunderground v.1.15,2013-04-18 17:15:00,
2013-04-18 12:18:00,41.7,39.3,29.63,NW,314,2.0,3.0,91,0.00,,,0.14,95,Wunderground v.1.15,2013-04-18 17:18:00,
2013-04-18 12:20:00,41.8,39.4,29.63,NW,314,2.0,2.0,91,0.00,,,0.14,95,Wunderground v.1.15,2013-04-18 17:20:00,
2013-04-18 12:21:00,41.7,39.3,29.63,North,351,2.0,2.0,91,0.00,,,0.14,83,Wunderground v.1.15,2013-04-18 17:21:00,
2013-04-18 12:24:00,41.7,39.3,29.63,NNW,348,2.0,2.0,91,0.00,,,0.14,104,Wunderground v.1.15,2013-04-18 17:24:00,
2013-04-18 12:26:00,41.8,39.4,29.62,North,349,2.0,5.0,91,0.00,,,0.14,130,Wunderground v.1.15,2013-04-18 17:26:00,
2013-04-18 12:27:00,41.8,39.4,29.61,North,5,3.0,5.0,91,0.00,,,0.14,135,Wunderground v.1.15,2013-04-18 17:27:00,
2013-04-18 12:28:00,41.8,39.4,29.61,North,5,3.0,5.0,91,0.00,,,0.14,98,Wunderground v.1.15,2013-04-18 17:28:00,
2013-04-18 12:29:00,41.8,39.4,29.62,North,9,3.0,5.0,91,0.00,,,0.14,104,Wunderground v.1.15,2013-04-18 17:29:00,
2013-04-18 12:34:00,41.8,39.4,29.61,NE,48,3.0,6.0,91,0.00,,,0.14,116,Wunderground v.1.15,2013-04-18 17:34:00,
2013-04-18 12:35:00,41.8,39.4,29.61,NE,53,4.0,6.0,91,0.00,,,0.14,107,Wunderground v.1.15,2013-04-18 17:35:00,
2013-04-18 12:38:00,41.8,39.4,29.59,NNE,30,4.0,6.0,91,0.00,,,0.14,141,Wunderground v.1.15,2013-04-18 17:38:00,
2013-04-18 12:39:00,41.7,39.3,29.59,NNE,30,4.0,6.0,91,0.00,,,0.14,141,Wunderground v.1.15,2013-04-18 17:39:00,
2013-04-18 12:40:00,41.8,39.4,29.59,NNE,21,4.0,4.0,91,0.00,,,0.14,139,Wunderground v.1.15,2013-04-18 17:40:00,
2013-04-18 12:44:00,41.8,39.4,29.60,North,360,3.0,5.0,91,0.00,,,0.14,123,Wunderground v.1.15,2013-04-18 17:44:00,
2013-04-18 12:45:00,41.8,39.6,29.60,North,360,3.0,5.0,92,0.00,,,0.14,130,Wunderground v.1.15,2013-04-18 17:45:00,
2013-04-18 12:46:00,41.8,39.4,29.60,NNE,16,3.0,5.0,91,0.00,,,0.14,176,Wunderground v.1.15,2013-04-18 17:46:00,
2013-04-18 12:47:00,41.8,39.4,29.60,NNW,339,3.0,5.0,91,0.00,,,0.14,178,Wunderground v.1.15,2013-04-18 17:47:00,
2013-04-18 12:48:00,41.8,39.4,29.60,North,350,3.0,5.0,91,0.00,,,0.14,158,Wunderground v.1.15,2013-04-18 17:48:00,
2013-04-18 12:50:00,41.7,39.5,29.59,NNW,339,3.0,7.0,92,0.00,,,0.14,123,Wunderground v.1.15,2013-04-18 17:50:00,
2013-04-18 12:54:00,41.6,39.2,29.58,NNW,342,4.0,7.0,91,0.00,,,0.14,188,Wunderground v.1.15,2013-04-18 17:54:00,
2013-04-18 12:55:00,41.6,39.4,29.57,NNW,342,4.0,7.0,92,0.00,,,0.14,229,Wunderground v.1.15,2013-04-18 17:55:00,
2013-04-18 12:58:00,41.5,39.3,29.57,NNE,26,4.0,7.0,92,0.00,,,0.14,199,Wunderground v.1.15,2013-04-18 17:58:00,
2013-04-18 13:01:00,41.6,39.4,29.58,NNE,15,5.0,8.0,92,0.00,,,0.14,144,Wunderground v.1.15,2013-04-18 18:01:00,
2013-04-18 13:03:00,41.6,39.4,29.58,NE,44,5.0,8.0,92,0.00,,,0.14,162,Wunderground v.1.15,2013-04-18 18:03:00,
2013-04-18 13:04:00,41.5,39.3,29.58,NNE,29,5.0,8.0,92,0.00,,,0.14,151,Wunderground v.1.15,2013-04-18 18:04:00,
2013-04-18 13:05:00,41.5,39.3,29.58,NNE,12,5.0,8.0,92,0.00,,,0.14,132,Wunderground v.1.15,2013-04-18 18:05:00,
2013-04-18 13:06:00,41.5,39.3,29.58,NNE,19,5.0,8.0,92,0.00,,,0.14,142,Wunderground v.1.15,2013-04-18 18:06:00,
2013-04-18 13:07:00,41.5,39.3,29.58,ENE,57,4.0,8.0,92,0.00,,,0.14,144,Wunderground v.1.15,2013-04-18 18:07:00,
2013-04-18 13:09:00,41.6,39.4,29.59,North,355,4.0,8.0,92,0.00,,,0.14,125,Wunderground v.1.15,2013-04-18 18:09:00,
2013-04-18 13:12:00,41.5,39.3,29.60,NNE,16,5.0,6.0,92,0.00,,,0.14,102,Wunderground v.1.15,2013-04-18 18:12:00,
2013-04-18 13:13:00,41.5,39.3,29.60,NE,47,5.0,6.0,92,0.00,,,0.14,93,Wunderground v.1.15,2013-04-18 18:13:00,
2013-04-18 13:16:00,41.5,39.3,29.61,ENE,64,4.0,6.0,92,0.00,,,0.14,97,Wunderground v.1.15,2013-04-18 18:16:00,
2013-04-18 13:19:00,41.5,39.3,29.60,NE,38,4.0,6.0,92,0.00,,,0.14,95,Wunderground v.1.15,2013-04-18 18:19:00,
2013-04-18 13:20:00,41.5,39.3,29.59,NNE,26,4.0,6.0,92,0.00,,,0.14,104,Wunderground v.1.15,2013-04-18 18:20:00,
2013-04-18 13:22:00,41.6,39.4,29.59,NE,40,4.0,6.0,92,0.00,,,0.14,107,Wunderground v.1.15,2013-04-18 18:22:00,
2013-04-18 13:25:00,41.6,39.4,29.59,NNW,346,4.0,6.0,92,0.00,,,0.14,104,Wunderground v.1.15,2013-04-18 18:25:00,
2013-04-18 13:27:00,41.6,39.4,29.59,North,355,4.0,6.0,92,0.00,,,0.14,104,Wunderground v.1.15,2013-04-18 18:27:00,
2013-04-18 13:28:00,41.6,39.4,29.58,NNE,22,4.0,6.0,92,0.00,,,0.14,116,Wunderground v.1.15,2013-04-18 18:28:00,
2013-04-18 13:29:00,41.7,39.5,29.58,NNE,32,4.0,6.0,92,0.00,,,0.14,123,Wunderground v.1.15,2013-04-18 18:29:00,
2013-04-18 13:31:00,41.6,39.4,29.58,NE,54,4.0,4.0,92,0.00,,,0.14,130,Wunderground v.1.15,2013-04-18 18:31:00,
2013-04-18 13:35:00,41.6,39.4,29.57,NE,35,5.0,6.0,92,0.00,,,0.14,148,Wunderground v.1.15,2013-04-18 18:35:00,
2013-04-18 13:36:00,41.7,39.8,29.57,NNE,18,5.0,6.0,93,0.00,,,0.14,167,Wunderground v.1.15,2013-04-18 18:36:00,
2013-04-18 13:37:00,41.7,39.8,29.57,North,360,4.0,6.0,93,0.00,,,0.14,151,Wunderground v.1.15,2013-04-18 18:37:00,
2013-04-18 13:38:00,41.7,39.8,29.57,North,5,5.0,6.0,93,0.00,,,0.14,153,Wunderground v.1.15,2013-04-18 18:38:00,
2013-04-18 13:41:00,41.7,39.8,29.57,North,11,4.0,4.0,93,0.00,,,0.14,141,Wunderground v.1.15,2013-04-18 18:41:00,
2013-04-18 13:46:00,41.6,39.7,29.56,North,355,4.0,7.0,93,0.00,,,0.14,169,Wunderground v.1.15,2013-04-18 18:46:00,
2013-04-18 13:47:00,41.6,39.7,29.56,North,5,4.0,7.0,93,0.00,,,0.14,193,Wunderground v.1.15,2013-04-18 18:47:00,
2013-04-18 13:48:00,41.6,39.7,29.56,North,355,4.0,7.0,93,0.00,,,0.14,190,Wunderground v.1.15,2013-04-18 18:48:00,
2013-04-18 13:49:00,41.6,39.7,29.56,NNE,23,4.0,7.0,93,0.00,,,0.14,163,Wunderground v.1.15,2013-04-18 18:49:00,
2013-04-18 13:52:00,41.6,39.7,29.56,North,360,4.0,5.0,93,0.00,,,0.14,123,Wunderground v.1.15,2013-04-18 18:52:00,
2013-04-18 13:54:00,41.5,39.6,29.56,North,355,5.0,7.0,93,0.00,,,0.14,127,Wunderground v.1.15,2013-04-18 18:54:00,
2013-04-18 13:55:00,41.5,39.6,29.56,NNE,30,5.0,10.0,93,0.00,,,0.14,127,Wunderground v.1.15,2013-04-18 18:55:00,
2013-04-18 13:56:00,41.4,39.5,29.56,North,5,5.0,10.0,93,0.00,,,0.14,128,Wunderground v.1.15,2013-04-18 18:56:00,
2013-04-18 13:57:00,41.4,39.5,29.56,North,350,5.0,10.0,93,0.00,,,0.14,121,Wunderground v.1.15,2013-04-18 18:57:00,
2013-04-18 14:02:00,41.3,39.4,29.55,NNE,22,5.0,5.0,93,0.00,,,0.14,113,Wunderground v.1.15,2013-04-18 19:02:00,
2013-04-18 14:03:00,41.3,39.4,29.55,North,9,5.0,7.0,93,0.00,,,0.14,118,Wunderground v.1.15,2013-04-18 19:03:00,
2013-04-18 14:05:00,41.3,39.4,29.55,NNE,17,5.0,7.0,93,0.00,,,0.14,107,Wunderground v.1.15,2013-04-18 19:05:00,
2013-04-18 14:06:00,41.3,39.4,29.55,NE,34,5.0,8.0,93,0.00,,,0.14,100,Wunderground v.1.15,2013-04-18 19:06:00,
2013-04-18 14:11:00,41.3,39.4,29.54,NE,38,5.0,7.0,93,0.00,,,0.14,132,Wunderground v.1.15,2013-04-18 19:11:00,
2013-04-18 14:12:00,41.3,39.4,29.54,North,11,5.0,7.0,93,0.00,,,0.14,134,Wunderground v.1.15,2013-04-18 19:12:00,
2013-04-18 14:15:00,41.3,39.4,29.53,North,5,5.0,7.0,93,0.00,,,0.14,135,Wunderground v.1.15,2013-04-18 19:15:00,
2013-04-18 14:16:00,41.3,39.4,29.54,NNE,13,5.0,9.0,93,0.00,,,0.14,123,Wunderground v.1.15,2013-04-18 19:16:00,
2013-04-18 14:17:00,41.3,39.4,29.54,ENE,78,5.0,9.0,93,0.00,,,0.14,113,Wunderground v.1.15,2013-04-18 19:17:00,
2013-04-18 14:19:00,41.3,39.4,29.53,NE,39,5.0,9.0,93,0.00,,,0.14,120,Wunderground v.1.15,2013-04-18 19:19:00,
2013-04-18 14:22:00,41.4,39.5,29.53,North,5,5.0,5.0,93,0.00,,,0.14,118,Wunderground v.1.15,2013-04-18 19:22:00,
2013-04-18 14:23:00,41.4,39.5,29.53,NE,43,5.0,8.0,93,0.00,,,0.14,127,Wunderground v.1.15,2013-04-18 19:23:00,
2013-04-18 14:26:00,41.4,39.5,29.53,NE,55,5.0,8.0,93,0.00,,,0.14,155,Wunderground v.1.15,2013-04-18 19:26:00,
2013-04-18 14:29:00,41.4,39.5,29.52,ENE,63,5.0,12.0,93,0.00,,,0.14,132,Wunderground v.1.15,2013-04-18 19:29:00,
2013-04-18 14:30:00,41.3,39.4,29.52,ENE,58,5.0,5.0,93,0.00,,,0.14,141,Wunderground v.1.15,2013-04-18 19:30:00,
2013-04-18 14:34:00,41.4,39.5,29.51,NNE,19,6.0,13.0,93,0.00,,,0.14,195,Wunderground v.1.15,2013-04-18 19:34:00,
2013-04-18 14:35:00,41.4,39.5,29.51,North,5,6.0,13.0,93,0.00,,,0.14,181,Wunderground v.1.15,2013-04-18 19:35:00,
2013-04-18 14:40:00,41.4,39.5,29.51,NE,51,7.0,7.0,93,0.00,,,0.14,139,Wunderground v.1.15,2013-04-18 19:40:00,
2013-04-18 14:41:00,41.4,39.5,29.51,NNE,20,7.0,7.0,93,0.00,,,0.14,144,Wunderground v.1.15,2013-04-18 19:41:00,
2013-04-18 14:43:00,41.4,39.5,29.51,NNE,30,8.0,11.0,93,0.00,,,0.14,174,Wunderground v.1.15,2013-04-18 19:43:00,
2013-04-18 14:44:00,41.4,39.5,29.50,NE,38,8.0,11.0,93,0.00,,,0.14,232,Wunderground v.1.15,2013-04-18 19:44:00,
2013-04-18 14:48:00,41.5,39.6,29.51,North,5,8.0,11.0,93,0.00,,,0.14,146,Wunderground v.1.15,2013-04-18 19:48:00,
2013-04-18 14:49:00,41.5,39.6,29.51,NNE,22,8.0,11.0,93,0.00,,,0.14,158,Wunderground v.1.15,2013-04-18 19:49:00,
2013-04-18 14:51:00,41.6,39.7,29.51,NE,34,8.0,8.0,93,0.00,,,0.14,167,Wunderground v.1.15,2013-04-18 19:51:00,
2013-04-18 14:53:00,41.6,39.7,29.51,NNE,23,7.0,8.0,93,0.00,,,0.14,125,Wunderground v.1.15,2013-04-18 19:53:00,
2013-04-18 14:56:00,41.6,39.7,29.52,NE,49,6.0,8.0,93,0.00,,,0.14,102,Wunderground v.1.15,2013-04-18 19:56:00,
2013-04-18 14:59:00,41.6,39.7,29.51,NE,56,6.0,11.0,93,0.00,,,0.14,111,Wunderground v.1.15,2013-04-18 19:59:00,
2013-04-18 15:01:00,41.6,39.7,29.50,NE,54,6.0,10.0,93,0.00,,,0.14,72,Wunderground v.1.15,2013-04-18 20:01:00,
2013-04-18 15:03:00,41.6,39.7,29.50,North,5,6.0,10.0,93,0.00,,,0.14,63,Wunderground v.1.15,2013-04-18 20:03:00,
2013-04-18 15:04:00,41.6,39.7,29.50,NE,46,6.0,10.0,93,0.00,,,0.14,58,Wunderground v.1.15,2013-04-18 20:04:00,
2013-04-18 15:06:00,41.7,39.8,29.50,North,5,6.0,10.0,93,0.00,,,0.14,60,Wunderground v.1.15,2013-04-18 20:06:00,
2013-04-18 15:10:00,41.7,39.8,29.51,NE,51,6.0,6.0,93,0.00,,,0.14,28,Wunderground v.1.15,2013-04-18 20:10:00,
2013-04-18 15:12:00,41.7,39.8,29.50,NE,55,5.0,6.0,93,0.00,,,0.14,26,Wunderground v.1.15,2013-04-18 20:12:00,
2013-04-18 15:13:00,41.6,39.7,29.50,NE,39,5.0,6.0,93,0.00,,,0.14,23,Wunderground v.1.15,2013-04-18 20:13:00,
2013-04-18 15:16:00,41.6,39.7,29.50,NE,47,5.0,7.0,93,0.00,,,0.14,16,Wunderground v.1.15,2013-04-18 20:16:00,
2013-04-18 15:17:00,41.6,39.7,29.50,NNE,21,5.0,7.0,93,0.00,,,0.14,18,Wunderground v.1.15,2013-04-18 20:17:00,
2013-04-18 15:18:00,41.6,39.7,29.49,NNE,29,4.0,7.0,93,0.00,,,0.15,16,Wunderground v.1.15,2013-04-18 20:18:00,
2013-04-18 15:21:00,41.6,39.7,29.49,NNE,29,5.0,8.0,93,0.49,,,0.17,18,Wunderground v.1.15,2013-04-18 20:21:00,
2013-04-18 15:22:00,41.6,39.7,29.49,NE,36,5.0,8.0,93,0.27,,,0.17,23,Wunderground v.1.15,2013-04-18 20:22:00,
2013-04-18 15:23:00,41.5,39.6,29.49,NE,56,6.0,8.0,93,0.17,,,0.17,28,Wunderground v.1.15,2013-04-18 20:23:00,
2013-04-18 15:25:00,41.5,39.6,29.49,NE,45,6.0,8.0,93,0.12,,,0.17,39,Wunderground v.1.15,2013-04-18 20:25:00,
2013-04-18 15:29:00,41.4,39.5,29.49,NE,55,6.0,8.0,93,0.06,,,0.17,44,Wunderground v.1.15,2013-04-18 20:29:00,
2013-04-18 15:31:00,41.4,39.8,29.48,NE,50,6.0,6.0,94,0.05,,,0.17,56,Wunderground v.1.15,2013-04-18 20:31:00,
2013-04-18 15:32:00,41.4,39.8,29.48,ENE,66,6.0,6.0,94,0.05,,,0.17,62,Wunderground v.1.15,2013-04-18 20:32:00,
2013-04-18 15:34:00,41.4,39.8,29.48,NE,43,5.0,6.0,94,0.04,,,0.17,65,Wunderground v.1.15,2013-04-18 20:34:00,
2013-04-18 15:35:00,41.4,39.8,29.48,NE,38,5.0,6.0,94,0.04,,,0.17,69,Wunderground v.1.15,2013-04-18 20:35:00,
2013-04-18 15:36:00,41.4,39.8,29.48,NE,53,5.0,6.0,94,0.04,,,0.17,74,Wunderground v.1.15,2013-04-18 20:36:00,
2013-04-18 15:38:00,41.5,39.9,29.47,North,360,4.0,6.0,94,0.00,,,0.17,76,Wunderground v.1.15,2013-04-18 20:38:00,
2013-04-18 15:40:00,41.5,39.9,29.47,ENE,67,4.0,5.0,94,0.00,,,0.17,69,Wunderground v.1.15,2013-04-18 20:40:00,
2013-04-18 15:41:00,41.5,39.9,29.48,ENE,59,4.0,5.0,94,0.00,,,0.17,69,Wunderground v.1.15,2013-04-18 20:41:00,
2013-04-18 15:43:00,41.5,39.9,29.48,NE,49,3.0,5.0,94,0.00,,,0.17,81,Wunderground v.1.15,2013-04-18 20:43:00,
2013-04-18 15:44:00,41.5,39.9,29.48,NE,36,3.0,5.0,94,0.00,,,0.17,81,Wunderground v.1.15,2013-04-18 20:44:00,
2013-04-18 15:45:00,41.5,39.9,29.47,North,10,3.0,6.0,94,0.00,,,0.17,86,Wunderground v.1.15,2013-04-18 20:45:00,
2013-04-18 15:48:00,41.5,39.9,29.47,NNE,26,4.0,6.0,94,0.00,,,0.17,72,Wunderground v.1.15,2013-04-18 20:48:00,
2013-04-18 15:49:00,41.5,39.9,29.47,ENE,66,4.0,6.0,94,0.00,,,0.17,74,Wunderground v.1.15,2013-04-18 20:49:00,
2013-04-18 15:51:00,41.5,39.9,29.47,North,5,3.0,4.0,94,0.00,,,0.17,83,Wunderground v.1.15,2013-04-18 20:51:00,
2013-04-18 15:54:00,41.5,39.9,29.46,NNE,31,4.0,5.0,94,0.00,,,0.17,70,Wunderground v.1.15,2013-04-18 20:54:00,
2013-04-18 15:56:00,41.6,40.0,29.46,NE,44,4.0,5.0,94,0.00,,,0.17,56,Wunderground v.1.15,2013-04-18 20:56:00,
2013-04-18 15:57:00,41.6,40.0,29.46,NE,44,3.0,5.0,94,0.00,,,0.17,56,Wunderground v.1.15,2013-04-18 20:57:00,
2013-04-18 15:59:00,41.7,40.1,29.46,North,5,3.0,5.0,94,0.00,,,0.17,69,Wunderground v.1.15,2013-04-18 20:59:00,
2013-04-18 16:00:00,41.7,40.1,29.45,NE,34,3.0,5.0,94,0.00,,,0.17,70,Wunderground v.1.15,2013-04-18 21:00:00,
2013-04-18 16:02:00,41.7,40.1,29.45,ENE,61,3.0,6.0,94,0.00,,,0.18,67,Wunderground v.1.15,2013-04-18 21:02:00,
2013-04-18 16:03:00,41.8,40.2,29.45,ENE,61,2.0,6.0,94,0.00,,,0.18,69,Wunderground v.1.15,2013-04-18 21:03:00,
2013-04-18 16:04:00,41.8,40.2,29.45,ENE,61,2.0,6.0,94,0.00,,,0.18,63,Wunderground v.1.15,2013-04-18 21:04:00,
2013-04-18 16:05:00,41.8,40.2,29.46,ENE,61,2.0,6.0,94,0.00,,,0.18,56,Wunderground v.1.15,2013-04-18 21:05:00,
2013-04-18 16:08:00,41.9,40.3,29.46,NE,39,1.0,6.0,94,0.00,,,0.18,69,Wunderground v.1.15,2013-04-18 21:08:00,
2013-04-18 16:09:00,41.9,40.3,29.45,NE,44,2.0,6.0,94,0.00,,,0.18,74,Wunderground v.1.15,2013-04-18 21:09:00,
2013-04-18 16:12:00,41.8,40.2,29.45,NE,46,2.0,3.0,94,0.00,,,0.18,62,Wunderground v.1.15,2013-04-18 21:12:00,
2013-04-18 16:14:00,41.8,40.2,29.45,NE,54,3.0,4.0,94,0.00,,,0.18,56,Wunderground v.1.15,2013-04-18 21:14:00,
2013-04-18 16:17:00,41.9,40.3,29.44,NE,45,4.0,7.0,94,0.00,,,0.18,42,Wunderground v.1.15,2013-04-18 21:17:00,
2013-04-18 16:18:00,41.8,40.2,29.44,NNE,32,4.0,7.0,94,0.00,,,0.18,51,Wunderground v.1.15,2013-04-18 21:18:00,
2013-04-18 16:21:00,41.8,40.2,29.44,ENE,59,4.0,4.0,94,0.00,,,0.18,56,Wunderground v.1.15,2013-04-18 21:21:00,
2013-04-18 16:23:00,41.8,40.2,29.44,NE,38,5.0,8.0,94,0.00,,,0.18,62,Wunderground v.1.15,2013-04-18 21:23:00,
2013-04-18 16:24:00,41.8,40.2,29.44,East,87,5.0,8.0,94,0.00,,,0.18,62,Wunderground v.1.15,2013-04-18 21:24:00,
2013-04-18 16:27:00,41.9,40.6,29.43,ENE,68,4.0,8.0,95,0.00,,,0.18,65,Wunderground v.1.15,2013-04-18 21:27:00,
2013-04-18 16:32:00,42.0,40.7,29.43,NE,38,3.0,3.0,95,0.00,,,0.18,54,Wunderground v.1.15,2013-04-18 21:32:00,
2013-04-18 16:33:00,42.0,40.7,29.43,ENE,62,2.0,3.0,95,0.00,,,0.18,56,Wunderground v.1.15,2013-04-18 21:33:00,
2013-04-18 16:34:00,42.0,40.7,29.43,ENE,62,2.0,3.0,95,0.00,,,0.18,56,Wunderground v.1.15,2013-04-18 21:34:00,
2013-04-18 16:35:00,42.1,40.8,29.43,ENE,62,2.0,3.0,95,0.00,,,0.18,51,Wunderground v.1.15,2013-04-18 21:35:00,
2013-04-18 16:38:00,42.1,40.8,29.42,ENE,57,1.0,3.0,95,0.00,,,0.18,65,Wunderground v.1.15,2013-04-18 21:38:00,
2013-04-18 16:40:00,42.2,40.9,29.42,NE,53,2.0,4.0,95,0.00,,,0.18,72,Wunderground v.1.15,2013-04-18 21:40:00,
2013-04-18 16:42:00,42.2,40.9,29.42,NE,46,2.0,4.0,95,0.00,,,0.18,67,Wunderground v.1.15,2013-04-18 21:42:00,
2013-04-18 16:45:00,42.2,40.9,29.42,East,98,3.0,4.0,95,0.00,,,0.18,62,Wunderground v.1.15,2013-04-18 21:45:00,
2013-04-18 16:46:00,42.2,40.9,29.42,NNE,26,3.0,4.0,95,0.00,,,0.18,62,Wunderground v.1.15,2013-04-18 21:46:00,
2013-04-18 16:48:00,42.2,40.9,29.42,NNE,32,4.0,5.0,95,0.00,,,0.18,76,Wunderground v.1.15,2013-04-18 21:48:00,
2013-04-18 16:49:00,42.3,41.0,29.42,NE,39,4.0,5.0,95,0.00,,,0.18,65,Wunderground v.1.15,2013-04-18 21:49:00,
2013-04-18 16:50:00,42.3,41.0,29.42,NE,39,3.0,3.0,95,0.00,,,0.18,60,Wunderground v.1.15,2013-04-18 21:50:00,
2013-04-18 16:53:00,42.4,41.1,29.42,ENE,59,3.0,3.0,95,0.00,,,0.18,51,Wunderground v.1.15,2013-04-18 21:53:00,
2013-04-18 16:55:00,42.5,41.2,29.42,NNE,32,3.0,3.0,95,0.00,,,0.18,47,Wunderground v.1.15,2013-04-18 21:55:00,
2013-04-18 16:56:00,42.5,41.2,29.42,NE,46,3.0,5.0,95,0.00,,,0.18,47,Wunderground v.1.15,2013-04-18 21:56:00,
2013-04-18 16:58:00,42.5,41.2,29.41,NE,41,3.0,8.0,95,0.00,,,0.18,49,Wunderground v.1.15,2013-04-18 21:58:00,
2013-04-18 16:59:00,42.5,41.2,29.41,NE,36,3.0,8.0,95,0.00,,,0.18,49,Wunderground v.1.15,2013-04-18 21:59:00,
2013-04-18 17:01:00,42.5,41.2,29.41,NE,39,3.0,3.0,95,0.00,,,0.18,56,Wunderground v.1.15,2013-04-18 22:01:00,
2013-04-18 17:03:00,42.5,41.2,29.41,NE,48,3.0,3.0,95,0.00,,,0.18,60,Wunderground v.1.15,2013-04-18 22:03:00,
2013-04-18 17:04:00,42.5,41.2,29.41,ENE,62,3.0,5.0,95,0.00,,,0.18,60,Wunderground v.1.15,2013-04-18 22:04:00,
2013-04-18 17:05:00,42.5,41.2,29.40,NE,53,4.0,5.0,95,0.00,,,0.18,56,Wunderground v.1.15,2013-04-18 22:05:00,
2013-04-18 17:08:00,42.5,41.2,29.40,ENE,69,3.0,5.0,95,0.00,,,0.18,63,Wunderground v.1.15,2013-04-18 22:08:00,
2013-04-18 17:10:00,42.6,41.3,29.41,SE,130,2.0,2.0,95,0.00,,,0.18,76,Wunderground v.1.15,2013-04-18 22:10:00,
2013-04-18 17:11:00,42.6,41.3,29.41,ENE,66,2.0,2.0,95,0.00,,,0.18,62,Wunderground v.1.15,2013-04-18 22:11:00,
2013-04-18 17:13:00,42.6,41.3,29.40,NNE,26,2.0,2.0,95,0.00,,,0.19,77,Wunderground v.1.15,2013-04-18 22:13:00,
2013-04-18 17:15:00,42.7,41.4,29.40,NNE,30,2.0,2.0,95,0.00,,,0.19,72,Wunderground v.1.15,2013-04-18 22:15:00,
2013-04-18 17:17:00,42.7,41.4,29.40,NNE,24,1.0,3.0,95,0.00,,,0.19,49,Wunderground v.1.15,2013-04-18 22:17:00,
2013-04-18 17:21:00,42.7,41.4,29.40,NNE,29,2.0,3.0,95,0.00,,,0.19,54,Wunderground v.1.15,2013-04-18 22:21:00,
2013-04-18 17:22:00,42.8,41.5,29.40,NNE,29,2.0,3.0,95,0.00,,,0.19,53,Wunderground v.1.15,2013-04-18 22:22:00,
2013-04-18 17:23:00,42.8,41.5,29.40,NNE,16,1.0,3.0,95,0.00,,,0.19,62,Wunderground v.1.15,2013-04-18 22:23:00,
2013-04-18 17:24:00,42.8,41.5,29.40,NNE,26,1.0,3.0,95,0.00,,,0.19,53,Wunderground v.1.15,2013-04-18 22:24:00,
2013-04-18 17:29:00,42.8,41.5,29.40,ENE,58,2.0,5.0,95,0.00,,,0.19,40,Wunderground v.1.15,2013-04-18 22:29:00,
2013-04-18 17:30:00,42.7,41.4,29.40,ENE,74,3.0,4.0,95,0.00,,,0.19,35,Wunderground v.1.15,2013-04-18 22:30:00,
2013-04-18 17:33:00,42.7,41.4,29.39,NE,51,4.0,5.0,95,0.00,,,0.19,44,Wunderground v.1.15,2013-04-18 22:33:00,
2013-04-18 17:35:00,42.7,41.4,29.39,ENE,63,4.0,5.0,95,0.00,,,0.19,56,Wunderground v.1.15,2013-04-18 22:35:00,
2013-04-18 17:36:00,42.7,41.4,29.39,NNE,19,4.0,5.0,95,0.00,,,0.19,60,Wunderground v.1.15,2013-04-18 22:36:00,
2013-04-18 17:37:00,42.7,41.4,29.39,NNE,19,4.0,5.0,95,0.00,,,0.19,63,Wunderground v.1.15,2013-04-18 22:37:00,
2013-04-18 17:38:00,42.7,41.4,29.39,NNE,30,3.0,5.0,95,0.00,,,0.19,72,Wunderground v.1.15,2013-04-18 22:38:00,
2013-04-18 17:42:00,42.7,41.4,29.39,NNE,30,3.0,3.0,95,0.00,,,0.20,53,Wunderground v.1.15,2013-04-18 22:42:00,
2013-04-18 17:44:00,42.7,41.4,29.39,NNE,30,2.0,3.0,95,0.00,,,0.20,42,Wunderground v.1.15,2013-04-18 22:44:00,
2013-04-18 17:46:00,42.7,41.4,29.39,NE,40,2.0,3.0,95,0.00,,,0.20,46,Wunderground v.1.15,2013-04-18 22:46:00,
2013-04-18 17:47:00,42.7,41.4,29.39,NE,52,1.0,3.0,95,0.00,,,0.20,49,Wunderground v.1.15,2013-04-18 22:47:00,
2013-04-18 17:48:00,42.7,41.4,29.39,NE,52,1.0,3.0,95,0.08,,,0.21,53,Wunderground v.1.15,2013-04-18 22:48:00,
2013-04-18 17:50:00,42.7,41.4,29.39,NE,52,1.0,1.0,95,0.08,,,0.21,46,Wunderground v.1.15,2013-04-18 22:50:00,
2013-04-18 17:53:00,42.7,41.4,29.39,NE,52,1.0,1.0,95,0.08,,,0.21,67,Wunderground v.1.15,2013-04-18 22:53:00,
2013-04-18 17:55:00,42.8,41.5,29.40,NE,52,1.0,1.0,95,0.08,,,0.21,19,Wunderground v.1.15,2013-04-18 22:55:00,
2013-04-18 17:56:00,42.8,41.5,29.40,NE,52,1.0,1.0,95,0.08,,,0.21,18,Wunderground v.1.15,2013-04-18 22:56:00,
2013-04-18 17:58:00,42.8,41.5,29.42,SW,219,1.0,8.0,95,0.06,,,0.21,25,Wunderground v.1.15,2013-04-18 22:58:00,
2013-04-18 18:01:00,42.8,41.5,29.42,SW,217,2.0,5.0,95,0.05,,,0.22,40,Wunderground v.1.15,2013-04-18 23:01:00,
2013-04-18 18:02:00,42.8,41.5,29.41,SW,217,3.0,5.0,95,0.05,,,0.22,39,Wunderground v.1.15,2013-04-18 23:02:00,
2013-04-18 18:03:00,42.8,41.5,29.41,SW,217,3.0,5.0,95,0.05,,,0.22,49,Wunderground v.1.15,2013-04-18 23:03:00,
2013-04-18 18:04:00,42.8,41.5,29.41,SW,218,3.0,5.0,95,0.05,,,0.22,60,Wunderground v.1.15,2013-04-18 23:04:00,
2013-04-18 18:09:00,42.9,41.6,29.40,WSW,250,3.0,5.0,95,0.05,,,0.22,62,Wunderground v.1.15,2013-04-18 23:09:00,
2013-04-18 18:10:00,42.9,41.6,29.40,NW,304,2.0,2.0,95,0.05,,,0.22,47,Wunderground v.1.15,2013-04-18 23:10:00,
2013-04-18 18:11:00,42.9,41.6,29.40,NW,304,2.0,3.0,95,0.05,,,0.22,40,Wunderground v.1.15,2013-04-18 23:11:00,
2013-04-18 18:14:00,42.9,41.6,29.38,NW,304,2.0,3.0,95,0.04,,,0.22,76,Wunderground v.1.15,2013-04-18 23:14:00,
2013-04-18 18:16:00,42.9,41.6,29.38,NW,304,2.0,3.0,95,0.04,,,0.22,63,Wunderground v.1.15,2013-04-18 23:16:00,
2013-04-18 18:18:00,42.9,41.6,29.38,NW,304,2.0,3.0,95,0.00,,,0.22,62,Wunderground v.1.15,2013-04-18 23:18:00,
2013-04-18 18:19:00,42.9,41.6,29.38,NW,304,2.0,3.0,95,0.00,,,0.22,54,Wunderground v.1.15,2013-04-18 23:19:00,
2013-04-18 18:21:00,43.0,41.7,29.38,NW,304,2.0,2.0,95,0.00,,,0.22,44,Wunderground v.1.15,2013-04-18 23:21:00,
2013-04-18 18:22:00,43.0,41.7,29.38,NW,321,2.0,3.0,95,0.00,,,0.22,37,Wunderground v.1.15,2013-04-18 23:22:00,
2013-04-18 18:24:00,43.0,41.7,29.38,NW,321,2.0,4.0,95,0.00,,,0.22,28,Wunderground v.1.15,2013-04-18 23:24:00,
2013-04-18 18:25:00,42.9,41.6,29.38,NW,321,2.0,4.0,95,0.00,,,0.22,26,Wunderground v.1.15,2013-04-18 23:25:00,
2013-04-18 18:27:00,42.9,41.6,29.38,NW,323,2.0,4.0,95,0.00,,,0.22,23,Wunderground v.1.15,2013-04-18 23:27:00,
2013-04-18 18:28:00,42.9,41.6,29.38,NW,323,2.0,4.0,95,0.00,,,0.22,25,Wunderground v.1.15,2013-04-18 23:28:00,
2013-04-18 18:29:00,42.9,41.6,29.38,NW,323,2.0,4.0,95,0.00,,,0.22,26,Wunderground v.1.15,2013-04-18 23:29:00,
2013-04-18 18:33:00,42.9,41.6,29.38,NW,323,2.0,2.0,95,0.00,,,0.22,25,Wunderground v.1.15,2013-04-18 23:33:00,
2013-04-18 18:34:00,42.8,41.5,29.38,NW,323,2.0,2.0,95,0.00,,,0.22,25,Wunderground v.1.15,2013-04-18 23:34:00,
2013-04-18 18:35:00,42.8,41.5,29.39,NW,323,2.0,2.0,95,0.00,,,0.22,25,Wunderground v.1.15,2013-04-18 23:35:00,
2013-04-18 18:37:00,42.9,41.6,29.39,NW,323,1.0,2.0,95,0.00,,,0.22,23,Wunderground v.1.15,2013-04-18 23:37:00,
2013-04-18 18:40:00,42.9,41.6,29.39,NW,323,1.0,3.0,95,0.00,,,0.23,18,Wunderground v.1.15,2013-04-18 23:40:00,
2013-04-18 18:42:00,42.8,41.5,29.40,SW,236,1.0,5.0,95,0.00,,,0.23,16,Wunderground v.1.15,2013-04-18 23:42:00,
2013-04-18 18:43:00,42.8,41.5,29.40,SW,236,2.0,5.0,95,0.00,,,0.23,23,Wunderground v.1.15,2013-04-18 23:43:00,
2013-04-18 18:45:00,42.8,41.5,29.39,SW,236,2.0,5.0,95,0.00,,,0.23,25,Wunderground v.1.15,2013-04-18 23:45:00,
2013-04-18 18:46:00,42.8,41.5,29.39,SW,236,2.0,5.0,95,0.00,,,0.23,23,Wunderground v.1.15,2013-04-18 23:46:00,
2013-04-18 18:50:00,42.9,41.6,29.38,SW,236,2.0,2.0,95,0.00,,,0.23,18,Wunderground v.1.15,2013-04-18 23:50:00,
2013-04-18 18:52:00,42.9,41.6,29.38,SW,236,1.0,2.0,95,0.00,,,0.23,16,Wunderground v.1.15,2013-04-18 23:52:00,
2013-04-18 18:54:00,42.9,41.6,29.38,SW,236,0.0,2.0,95,0.00,,,0.23,21,Wunderground v.1.15,2013-04-18 23:54:00,
2013-04-18 18:55:00,42.9,41.6,29.38,SW,236,0.0,2.0,95,0.00,,,0.23,25,Wunderground v.1.15,2013-04-18 23:55:00,
2013-04-18 18:56:00,42.9,41.6,29.37,SW,236,0.0,2.0,95,0.00,,,0.23,26,Wunderground v.1.15,2013-04-18 23:56:00,
2013-04-18 18:58:00,42.9,41.6,29.37,SW,236,0.0,2.0,95,0.00,,,0.23,21,Wunderground v.1.15,2013-04-18 23:58:00,
2013-04-18 19:02:00,42.9,41.6,29.37,SW,236,0.0,0.0,95,0.00,,,0.23,18,Wunderground v.1.15,2013-04-19 00:02:00,
2013-04-18 19:03:00,42.9,41.6,29.37,SW,236,0.0,0.0,95,0.00,,,0.23,14,Wunderground v.1.15,2013-04-19 00:03:00,
2013-04-18 19:04:00,42.9,41.6,29.37,SW,236,0.0,0.0,95,0.00,,,0.23,16,Wunderground v.1.15,2013-04-19 00:04:00,
2013-04-18 19:05:00,42.9,41.6,29.37,SW,236,0.0,0.0,95,0.00,,,0.23,16,Wunderground v.1.15,2013-04-19 00:05:00,
2013-04-18 19:08:00,42.8,41.5,29.37,SW,236,0.0,0.0,95,0.00,,,0.23,14,Wunderground v.1.15,2013-04-19 00:08:00,
2013-04-18 19:10:00,42.8,41.5,29.38,SW,236,0.0,0.0,95,0.00,,,0.23,12,Wunderground v.1.15,2013-04-19 00:10:00,
2013-04-18 19:11:00,42.8,41.5,29.38,SW,236,0.0,0.0,95,0.00,,,0.23,9,Wunderground v.1.15,2013-04-19 00:11:00,
2013-04-18 19:13:00,42.8,41.5,29.38,SW,236,1.0,2.0,95,0.00,,,0.23,14,Wunderground v.1.15,2013-04-19 00:13:00,
2013-04-18 19:14:00,42.8,41.5,29.38,SW,236,1.0,2.0,95,0.00,,,0.23,12,Wunderground v.1.15,2013-04-19 00:14:00,
2013-04-18 19:16:00,42.8,41.5,29.38,SW,234,1.0,6.0,95,0.00,,,0.23,5,Wunderground v.1.15,2013-04-19 00:16:00,
2013-04-18 19:17:00,42.8,41.5,29.38,SW,231,1.0,6.0,95,0.00,,,0.23,7,Wunderground v.1.15,2013-04-19 00:17:00,
2013-04-18 19:18:00,42.7,41.4,29.39,SW,228,2.0,6.0,95,0.00,,,0.23,7,Wunderground v.1.15,2013-04-19 00:18:00,
2013-04-18 19:19:00,42.7,41.4,29.39,SW,236,2.0,6.0,95,0.00,,,0.23,9,Wunderground v.1.15,2013-04-19 00:19:00,
2013-04-18 19:21:00,42.6,41.3,29.39,SW,236,3.0,4.0,95,0.00,,,0.24,7,Wunderground v.1.15,2013-04-19 00:21:00,
2013-04-18 19:22:00,42.6,41.3,29.39,SW,236,4.0,6.0,95,0.00,,,0.24,7,Wunderground v.1.15,2013-04-19 00:22:00,
2013-04-18 19:23:00,42.4,41.1,29.39,SW,236,4.0,6.0,95,0.00,,,0.24,7,Wunderground v.1.15,2013-04-19 00:23:00,
2013-04-18 19:25:00,42.3,41.0,29.39,SW,236,5.0,6.0,95,0.00,,,0.24,7,Wunderground v.1.15,2013-04-19 00:25:00,
2013-04-18 19:27:00,42.1,40.8,29.39,SW,236,5.0,6.0,95,0.00,,,0.24,7,Wunderground v.1.15,2013-04-19 00:27:00,
2013-04-18 19:28:00,42.0,40.7,29.39,SW,223,5.0,7.0,95,0.00,,,0.24,7,Wunderground v.1.15,2013-04-19 00:28:00,
2013-04-18 19:29:00,42.0,40.7,29.39,SW,226,5.0,7.0,95,0.00,,,0.24,7,Wunderground v.1.15,2013-04-19 00:29:00,
2013-04-18 19:32:00,41.8,40.5,29.39,SW,229,5.0,6.0,95,0.00,,,0.24,7,Wunderground v.1.15,2013-04-19 00:32:00,
2013-04-18 19:33:00,41.7,40.4,29.39,SSW,213,6.0,7.0,95,0.00,,,0.24,5,Wunderground v.1.15,2013-04-19 00:33:00,
2013-04-18 19:34:00,41.6,40.3,29.39,SW,232,6.0,10.0,95,0.00,,,0.24,5,Wunderground v.1.15,2013-04-19 00:34:00,
2013-04-18 19:35:00,41.6,40.3,29.40,SW,215,6.0,10.0,95,0.00,,,0.24,5,Wunderground v.1.15,2013-04-19 00:35:00,
2013-04-18 19:37:00,41.5,40.2,29.40,SW,225,7.0,10.0,95,0.00,,,0.24,5,Wunderground v.1.15,2013-04-19 00:37:00,
2013-04-18 19:38:00,41.4,40.1,29.40,SSW,211,7.0,10.0,95,0.00,,,0.24,0,Wunderground v.1.15,2013-04-19 00:38:00,
2013-04-18 19:43:00,41.2,39.9,29.40,SW,235,7.0,9.0,95,0.00,,,0.24,0,Wunderground v.1.15,2013-04-19 00:43:00,
2013-04-18 19:45:00,41.1,39.8,29.40,WSW,240,6.0,9.0,95,0.00,,,0.24,0,Wunderground v.1.15,2013-04-19 00:45:00,
2013-04-18 19:46:00,41.1,39.8,29.40,WSW,240,6.0,9.0,95,0.00,,,0.24,0,Wunderground v.1.15,2013-04-19 00:46:00,
2013-04-18 19:49:00,41.0,39.7,29.41,SSW,213,5.0,9.0,95,0.00,,,0.24,0,Wunderground v.1.15,2013-04-19 00:49:00,
2013-04-18 19:53:00,41.0,39.7,29.41,SW,223,5.0,10.0,95,0.00,,,0.24,0,Wunderground v.1.15,2013-04-19 00:53:00,
2013-04-18 19:54:00,41.0,39.7,29.41,SW,221,5.0,10.0,95,0.00,,,0.24,0,Wunderground v.1.15,2013-04-19 00:54:00,
2013-04-18 19:56:00,40.9,39.6,29.41,SW,231,6.0,10.0,95,0.00,,,0.24,0,Wunderground v.1.15,2013-04-19 00:56:00,
2013-04-18 19:59:00,40.9,39.6,29.41,WSW,238,5.0,10.0,95,0.00,,,0.24,0,Wunderground v.1.15,2013-04-19 00:59:00,
2013-04-18 20:00:00,40.8,39.5,29.42,SW,219,5.0,5.0,95,0.00,,,0.24,0,Wunderground v.1.15,2013-04-19 01:00:00,
2013-04-18 20:01:00,40.8,39.5,29.42,SW,214,5.0,5.0,95,0.00,,,0.24,0,Wunderground v.1.15,2013-04-19 01:01:00,
2013-04-18 20:03:00,40.7,39.4,29.42,SW,230,5.0,5.0,95,0.00,,,0.24,0,Wunderground v.1.15,2013-04-19 01:03:00,
2013-04-18 20:05:00,40.7,39.4,29.42,SW,229,5.0,5.0,95,0.00,,,0.24,0,Wunderground v.1.15,2013-04-19 01:05:00,
2013-04-18 20:07:00,40.6,39.3,29.42,WSW,243,4.0,8.0,95,0.00,,,0.24,0,Wunderground v.1.15,2013-04-19 01:07:00,
2013-04-18 20:08:00,40.6,39.3,29.42,SW,229,4.0,8.0,95,0.00,,,0.24,0,Wunderground v.1.15,2013-04-19 01:08:00,
2013-04-18 20:09:00,40.6,39.3,29.42,SW,223,4.0,8.0,95,0.00,,,0.24,0,Wunderground v.1.15,2013-04-19 01:09:00,
2013-04-18 20:11:00,40.5,39.2,29.42,SW,229,4.0,7.0,95,0.00,,,0.24,0,Wunderground v.1.15,2013-04-19 01:11:00,
2013-04-18 20:15:00,40.4,39.1,29.42,SW,227,5.0,7.0,95,0.00,,,0.24,0,Wunderground v.1.15,2013-04-19 01:15:00,
2013-04-18 20:16:00,40.3,39.0,29.42,SW,221,5.0,7.0,95,0.00,,,0.24,0,Wunderground v.1.15,2013-04-19 01:16:00,
2013-04-18 20:19:00,40.2,38.9,29.42,SW,227,5.0,7.0,95,0.00,,,0.24,0,Wunderground v.1.15,2013-04-19 01:19:00,
2013-04-18 20:20:00,40.2,38.9,29.42,SW,227,4.0,4.0,95,0.00,,,0.24,0,Wunderground v.1.15,2013-04-19 01:20:00,
2013-04-18 20:21:00,40.2,38.9,29.42,SW,227,4.0,5.0,95,0.00,,,0.24,0,Wunderground v.1.15,2013-04-19 01:21:00,
2013-04-18 20:22:00,40.2,38.9,29.42,SW,227,4.0,5.0,95,0.00,,,0.24,0,Wunderground v.1.15,2013-04-19 01:22:00,
2013-04-18 20:24:00,40.1,38.8,29.42,WSW,247,4.0,7.0,95,0.00,,,0.24,0,Wunderground v.1.15,2013-04-19 01:24:00,
2013-04-18 20:25:00,40.1,38.8,29.42,SW,215,4.0,7.0,95,0.00,,,0.24,0,Wunderground v.1.15,2013-04-19 01:25:00,
2013-04-18 20:28:00,40.0,38.7,29.43,SSW,211,5.0,7.0,95,0.00,,,0.24,0,Wunderground v.1.15,2013-04-19 01:28:00,
2013-04-18 20:30:00,39.9,38.6,29.42,SW,236,5.0,8.0,95,0.00,,,0.24,0,Wunderground v.1.15,2013-04-19 01:30:00,
2013-04-18 20:31:00,39.9,38.6,29.42,SW,229,5.0,8.0,95,0.00,,,0.24,0,Wunderground v.1.15,2013-04-19 01:31:00,
2013-04-18 20:33:00,39.8,38.5,29.42,SW,231,5.0,8.0,95,0.00,,,0.24,0,Wunderground v.1.15,2013-04-19 01:33:00,
2013-04-18 20:34:00,39.8,38.5,29.42,SW,236,5.0,8.0,95,0.00,,,0.24,0,Wunderground v.1.15,2013-04-19 01:34:00,
2013-04-18 20:36:00,39.8,38.5,29.43,SW,228,5.0,8.0,95,0.00,,,0.24,0,Wunderground v.1.15,2013-04-19 01:36:00,
2013-04-18 20:39:00,39.7,38.4,29.43,SW,225,5.0,8.0,95,0.00,,,0.24,0,Wunderground v.1.15,2013-04-19 01:39:00,
2013-04-18 20:40:00,39.7,38.4,29.43,SW,225,4.0,4.0,95,0.00,,,0.24,0,Wunderground v.1.15,2013-04-19 01:40:00,
2013-04-18 20:41:00,39.7,38.4,29.43,SW,214,4.0,4.0,95,0.00,,,0.24,0,Wunderground v.1.15,2013-04-19 01:41:00,
2013-04-18 20:45:00,39.6,38.3,29.44,SW,230,4.0,4.0,95,0.00,,,0.24,0,Wunderground v.1.15,2013-04-19 01:45:00,
2013-04-18 20:46:00,39.6,38.3,29.44,SW,230,4.0,5.0,95,0.00,,,0.24,0,Wunderground v.1.15,2013-04-19 01:46:00,
2013-04-18 20:48:00,39.6,38.3,29.44,South,187,3.0,5.0,95,0.00,,,0.24,0,Wunderground v.1.15,2013-04-19 01:48:00,
2013-04-18 20:50:00,39.6,38.3,29.44,SSW,204,3.0,6.0,95,0.00,,,0.24,0,Wunderground v.1.15,2013-04-19 01:50:00,
2013-04-18 20:53:00,39.5,38.2,29.45,SSW,192,5.0,10.0,95,0.00,,,0.24,0,Wunderground v.1.15,2013-04-19 01:53:00,
2013-04-18 20:55:00,39.5,37.9,29.45,South,179,5.0,10.0,94,0.00,,,0.24,0,Wunderground v.1.15,2013-04-19 01:55:00,
2013-04-18 20:57:00,39.4,38.1,29.44,SSW,193,6.0,10.0,95,0.00,,,0.24,0,Wunderground v.1.15,2013-04-19 01:57:00,
2013-04-18 21:00:00,39.3,37.7,29.45,SW,218,6.0,6.0,94,0.00,,,0.24,0,Wunderground v.1.15,2013-04-19 02:00:00,
2013-04-18 21:01:00,39.3,37.7,29.45,SSW,211,6.0,6.0,94,0.00,,,0.24,0,Wunderground v.1.15,2013-04-19 02:01:00,
2013-04-18 21:03:00,39.3,37.7,29.45,SW,219,6.0,7.0,94,0.00,,,0.24,0,Wunderground v.1.15,2013-04-19 02:03:00,
2013-04-18 21:04:00,39.3,37.7,29.45,SW,215,5.0,7.0,94,0.00,,,0.24,0,Wunderground v.1.15,2013-04-19 02:04:00,
2013-04-18 21:06:00,39.2,37.6,29.45,SW,215,5.0,7.0,94,0.00,,,0.24,0,Wunderground v.1.15,2013-04-19 02:06:00,
2013-04-18 21:08:00,39.2,37.6,29.45,SSW,209,4.0,7.0,94,0.00,,,0.24,0,Wunderground v.1.15,2013-04-19 02:08:00,
2013-04-18 21:09:00,39.2,37.6,29.45,SSW,207,4.0,7.0,94,0.00,,,0.24,0,Wunderground v.1.15,2013-04-19 02:09:00,
2013-04-18 21:11:00,39.1,37.5,29.45,SSW,198,4.0,11.0,94,0.00,,,0.24,0,Wunderground v.1.15,2013-04-19 02:11:00,
2013-04-18 21:13:00,39.1,37.5,29.45,SW,217,4.0,11.0,94,0.00,,,0.24,0,Wunderground v.1.15,2013-04-19 02:13:00,
2013-04-18 21:16:00,39.1,37.5,29.46,SSW,210,4.0,11.0,94,0.00,,,0.24,0,Wunderground v.1.15,2013-04-19 02:16:00,
2013-04-18 21:18:00,39.0,37.4,29.46,SSW,201,5.0,11.0,94,0.00,,,0.24,0,Wunderground v.1.15,2013-04-19 02:18:00,
2013-04-18 21:20:00,39.0,37.4,29.46,SW,219,5.0,9.0,94,0.00,,,0.24,0,Wunderground v.1.15,2013-04-19 02:20:00,
2013-04-18 21:24:00,39.0,37.4,29.46,SSW,213,6.0,9.0,94,0.00,,,0.24,0,Wunderground v.1.15,2013-04-19 02:24:00,
2013-04-18 21:25:00,39.0,37.4,29.46,SW,220,6.0,9.0,94,0.00,,,0.24,0,Wunderground v.1.15,2013-04-19 02:25:00,
2013-04-18 21:26:00,39.0,37.4,29.46,SW,215,6.0,9.0,94,0.00,,,0.24,0,Wunderground v.1.15,2013-04-19 02:26:00,
2013-04-18 21:27:00,39.0,37.4,29.46,SSW,207,6.0,9.0,94,0.00,,,0.24,0,Wunderground v.1.15,2013-04-19 02:27:00,
2013-04-18 21:30:00,38.9,37.3,29.46,SSW,203,6.0,6.0,94,0.00,,,0.24,0,Wunderground v.1.15,2013-04-19 02:30:00,
2013-04-18 21:32:00,38.9,37.3,29.46,SSW,207,5.0,6.0,94,0.00,,,0.24,0,Wunderground v.1.15,2013-04-19 02:32:00,
2013-04-18 21:33:00,38.9,37.3,29.46,SSW,203,5.0,7.0,94,0.00,,,0.24,0,Wunderground v.1.15,2013-04-19 02:33:00,
2013-04-18 21:36:00,38.9,37.3,29.45,SSW,211,5.0,10.0,94,0.00,,,0.24,0,Wunderground v.1.15,2013-04-19 02:36:00,
2013-04-18 21:39:00,38.9,37.0,29.45,SSW,198,5.0,10.0,93,0.00,,,0.24,0,Wunderground v.1.15,2013-04-19 02:39:00,
2013-04-18 21:40:00,38.9,37.3,29.45,SSW,212,5.0,9.0,94,0.00,,,0.24,0,Wunderground v.1.15,2013-04-19 02:40:00,
2013-04-18 21:42:00,38.9,37.3,29.45,SSW,213,6.0,9.0,94,0.00,,,0.24,0,Wunderground v.1.15,2013-04-19 02:42:00,
2013-04-18 21:43:00,38.8,37.2,29.45,SW,214,6.0,9.0,94,0.00,,,0.24,0,Wunderground v.1.15,2013-04-19 02:43:00,
2013-04-18 21:45:00,38.8,36.9,29.45,SSW,211,6.0,9.0,93,0.00,,,0.24,0,Wunderground v.1.15,2013-04-19 02:45:00,
2013-04-18 21:48:00,38.8,36.9,29.45,SW,217,7.0,12.0,93,0.00,,,0.24,0,Wunderground v.1.15,2013-04-19 02:48:00,
2013-04-18 21:49:00,38.7,36.9,29.45,SSW,210,7.0,12.0,93,0.00,,,0.24,0,Wunderground v.1.15,2013-04-19 02:49:00,
2013-04-18 21:50:00,38.7,36.9,29.45,SW,219,7.0,7.0,93,0.00,,,0.24,0,Wunderground v.1.15,2013-04-19 02:50:00,
2013-04-18 21:55:00,38.5,36.7,29.45,South,186,8.0,13.0,93,0.00,,,0.24,0,Wunderground v.1.15,2013-04-19 02:55:00,
2013-04-18 21:56:00,38.4,36.6,29.45,SW,216,8.0,13.0,93,0.00,,,0.24,0,Wunderground v.1.15,2013-04-19 02:56:00,
2013-04-18 21:57:00,38.4,36.6,29.45,SSW,212,9.0,13.0,93,0.00,,,0.24,0,Wunderground v.1.15,2013-04-19 02:57:00,
2013-04-18 21:58:00,38.3,36.5,29.45,SW,214,9.0,13.0,93,0.00,,,0.24,0,Wunderground v.1.15,2013-04-19 02:58:00,
2013-04-18 22:02:00,38.3,36.5,29.45,WSW,253,9.0,10.0,93,0.00,,,0.24,0,Wunderground v.1.15,2013-04-19 03:02:00,
2013-04-18 22:04:00,38.2,36.4,29.45,SSW,192,8.0,10.0,93,0.00,,,0.24,0,Wunderground v.1.15,2013-04-19 03:04:00,
2013-04-18 22:07:00,38.1,36.3,29.45,SSW,200,8.0,10.0,93,0.00,,,0.24,0,Wunderground v.1.15,2013-04-19 03:07:00,
2013-04-18 22:09:00,38.1,36.3,29.45,SSW,206,7.0,10.0,93,0.00,,,0.24,0,Wunderground v.1.15,2013-04-19 03:09:00,
2013-04-18 22:10:00,38.1,36.3,29.45,South,188,7.0,7.0,93,0.00,,,0.24,0,Wunderground v.1.15,2013-04-19 03:10:00,
2013-04-18 22:12:00,38.1,36.3,29.45,SW,225,6.0,9.0,93,0.00,,,0.24,0,Wunderground v.1.15,2013-04-19 03:12:00,
2013-04-18 22:14:00,38.0,35.9,29.45,SSW,200,6.0,9.0,92,0.00,,,0.24,0,Wunderground v.1.15,2013-04-19 03:14:00,
2013-04-18 22:15:00,38.0,35.9,29.45,SSW,211,5.0,9.0,92,0.00,,,0.24,0,Wunderground v.1.15,2013-04-19 03:15:00,
2013-04-18 22:17:00,38.0,35.9,29.44,SSW,194,5.0,9.0,92,0.00,,,0.24,0,Wunderground v.1.15,2013-04-19 03:17:00,
2013-04-18 22:19:00,38.0,35.9,29.44,SSE,154,4.0,9.0,92,0.00,,,0.24,0,Wunderground v.1.15,2013-04-19 03:19:00,
2013-04-18 22:20:00,38.0,35.9,29.44,SW,214,5.0,5.0,92,0.00,,,0.24,0,Wunderground v.1.15,2013-04-19 03:20:00,
2013-04-18 22:21:00,37.9,35.8,29.44,SW,214,5.0,5.0,92,0.00,,,0.24,0,Wunderground v.1.15,2013-04-19 03:21:00,
2013-04-18 22:24:00,37.9,35.8,29.44,SSW,210,5.0,5.0,92,0.00,,,0.24,0,Wunderground v.1.15,2013-04-19 03:24:00,
2013-04-18 22:26:00,37.9,35.8,29.44,SSW,213,5.0,7.0,92,0.00,,,0.24,0,Wunderground v.1.15,2013-04-19 03:26:00,
2013-04-18 22:27:00,37.8,35.7,29.44,SSW,205,5.0,7.0,92,0.00,,,0.24,0,Wunderground v.1.15,2013-04-19 03:27:00,
2013-04-18 22:28:00,37.8,35.7,29.44,SSW,198,5.0,7.0,92,0.00,,,0.24,0,Wunderground v.1.15,2013-04-19 03:28:00,
2013-04-18 22:29:00,37.8,35.7,29.44,SW,215,5.0,7.0,92,0.00,,,0.24,0,Wunderground v.1.15,2013-04-19 03:29:00,
2013-04-18 22:32:00,37.7,35.6,29.44,South,184,5.0,9.0,92,0.00,,,0.24,0,Wunderground v.1.15,2013-04-19 03:32:00,
2013-04-18 22:33:00,37.7,35.6,29.44,SSW,200,6.0,9.0,92,0.00,,,0.24,0,Wunderground v.1.15,2013-04-19 03:33:00,
2013-04-18 22:34:00,37.7,35.6,29.44,SSW,207,6.0,9.0,92,0.00,,,0.24,0,Wunderground v.1.15,2013-04-19 03:34:00,
2013-04-18 22:35:00,37.7,35.6,29.44,SSW,210,6.0,9.0,92,0.00,,,0.24,0,Wunderground v.1.15,2013-04-19 03:35:00,
2013-04-18 22:40:00,37.5,35.4,29.43,SSW,200,7.0,13.0,92,0.00,,,0.24,0,Wunderground v.1.15,2013-04-19 03:40:00,
2013-04-18 22:41:00,37.5,35.4,29.43,SSW,202,7.0,13.0,92,0.00,,,0.24,0,Wunderground v.1.15,2013-04-19 03:41:00,
2013-04-18 22:42:00,37.4,35.3,29.43,South,191,7.0,13.0,92,0.00,,,0.24,0,Wunderground v.1.15,2013-04-19 03:42:00,
2013-04-18 22:47:00,37.3,35.2,29.43,SW,219,8.0,13.0,92,0.00,,,0.24,0,Wunderground v.1.15,2013-04-19 03:47:00,
2013-04-18 22:48:00,37.2,35.1,29.43,SW,220,9.0,13.0,92,0.00,,,0.24,0,Wunderground v.1.15,2013-04-19 03:48:00,
2013-04-18 22:49:00,37.2,35.1,29.43,SSW,211,9.0,13.0,92,0.00,,,0.24,0,Wunderground v.1.15,2013-04-19 03:49:00,
2013-04-18 22:52:00,37.1,35.0,29.43,SSW,212,8.0,9.0,92,0.00,,,0.24,0,Wunderground v.1.15,2013-04-19 03:52:00,
2013-04-18 22:53:00,37.1,35.0,29.43,SSW,203,8.0,9.0,92,0.00,,,0.24,0,Wunderground v.1.15,2013-04-19 03:53:00,
2013-04-18 22:54:00,37.0,34.9,29.43,SSW,208,8.0,9.0,92,0.00,,,0.24,0,Wunderground v.1.15,2013-04-19 03:54:00,
2013-04-18 22:56:00,37.0,34.9,29.42,SW,219,7.0,9.0,92,0.00,,,0.24,0,Wunderground v.1.15,2013-04-19 03:56:00,
2013-04-18 23:01:00,36.9,34.8,29.42,SSW,211,5.0,6.0,92,0.00,,,0.24,0,Wunderground v.1.15,2013-04-19 04:01:00,
2013-04-18 23:02:00,36.9,34.8,29.42,SSW,211,5.0,6.0,92,0.00,,,0.24,0,Wunderground v.1.15,2013-04-19 04:02:00,
2013-04-18 23:03:00,36.8,34.7,29.43,SSW,200,4.0,6.0,92,0.00,,,0.24,0,Wunderground v.1.15,2013-04-19 04:03:00,
2013-04-18 23:05:00,36.7,34.6,29.43,South,178,4.0,6.0,92,0.00,,,0.24,0,Wunderground v.1.15,2013-04-19 04:05:00,
2013-04-18 23:06:00,36.7,34.6,29.43,SW,214,4.0,7.0,92,0.00,,,0.24,0,Wunderground v.1.15,2013-04-19 04:06:00,
2013-04-18 23:09:00,36.6,34.5,29.43,SSW,195,4.0,9.0,92,0.00,,,0.24,0,Wunderground v.1.15,2013-04-19 04:09:00,
2013-04-18 23:11:00,36.5,34.4,29.43,SSW,209,5.0,9.0,92,0.00,,,0.24,0,Wunderground v.1.15,2013-04-19 04:11:00,
2013-04-18 23:12:00,36.5,34.4,29.43,SSW,211,6.0,10.0,92,0.00,,,0.24,0,Wunderground v.1.15,2013-04-19 04:12:00,
2013-04-18 23:14:00,36.4,34.3,29.43,SW,219,6.0,10.0,92,0.00,,,0.24,0,Wunderground v.1.15,2013-04-19 04:14:00,
2013-04-18 23:15:00,36.4,34.3,29.43,SSW,198,7.0,10.0,92,0.00,,,0.24,0,Wunderground v.1.15,2013-04-19 04:15:00,
2013-04-18 23:18:00,36.3,34.2,29.43,SSW,207,7.0,12.0,92,0.00,,,0.24,0,Wunderground v.1.15,2013-04-19 04:18:00,
2013-04-18 23:19:00,36.3,34.2,29.43,SSW,209,7.0,13.0,92,0.00,,,0.24,0,Wunderground v.1.15,2013-04-19 04:19:00,
2013-04-18 23:22:00,36.2,34.1,29.43,SW,217,7.0,9.0,92,0.00,,,0.24,0,Wunderground v.1.15,2013-04-19 04:22:00,
2013-04-18 23:24:00,36.2,34.1,29.43,SW,221,8.0,9.0,92,0.00,,,0.24,0,Wunderground v.1.15,2013-04-19 04:24:00,
2013-04-18 23:25:00,36.2,34.1,29.43,SSW,207,8.0,9.0,92,0.00,,,0.24,0,Wunderground v.1.15,2013-04-19 04:25:00,
2013-04-18 23:29:00,36.0,33.6,29.43,WSW,238,7.0,9.0,91,0.00,,,0.24,0,Wunderground v.1.15,2013-04-19 04:29:00,
2013-04-18 23:30:00,36.0,33.6,29.43,SW,233,6.0,7.0,91,0.00,,,0.24,0,Wunderground v.1.15,2013-04-19 04:30:00,
2013-04-18 23:31:00,35.9,33.5,29.43,SW,218,6.0,7.0,91,0.00,,,0.24,0,Wunderground v.1.15,2013-04-19 04:31:00,
2013-04-18 23:33:00,35.9,33.5,29.43,SW,216,5.0,7.0,91,0.00,,,0.24,0,Wunderground v.1.15,2013-04-19 04:33:00,
2013-04-18 23:38:00,35.7,33.6,29.43,SSW,213,4.0,9.0,92,0.00,,,0.24,0,Wunderground v.1.15,2013-04-19 04:38:00,
2013-04-18 23:39:00,35.6,33.5,29.43,SSW,196,4.0,9.0,92,0.00,,,0.24,0,Wunderground v.1.15,2013-04-19 04:39:00,
2013-04-18 23:40:00,35.6,33.5,29.43,South,186,4.0,6.0,92,0.00,,,0.24,0,Wunderground v.1.15,2013-04-19 04:40:00,
2013-04-18 23:41:00,35.5,33.1,29.43,SW,227,4.0,10.0,91,0.00,,,0.24,0,Wunderground v.1.15,2013-04-19 04:41:00,
2013-04-18 23:45:00,35.4,33.0,29.43,SSW,194,6.0,16.0,91,0.00,,,0.24,0,Wunderground v.1.15,2013-04-19 04:45:00,
2013-04-18 23:46:00,35.3,32.9,29.43,South,175,7.0,16.0,91,0.00,,,0.24,0,Wunderground v.1.15,2013-04-19 04:46:00,
2013-04-18 23:50:00,35.1,32.7,29.43,SSW,205,8.0,8.0,91,0.00,,,0.24,0,Wunderground v.1.15,2013-04-19 04:50:00,
2013-04-18 23:51:00,35.1,32.7,29.43,SSW,203,8.0,8.0,91,0.00,,,0.24,0,Wunderground v.1.15,2013-04-19 04:51:00,
2013-04-18 23:53:00,34.9,32.5,29.43,SSW,199,8.0,9.0,91,0.00,,,0.24,0,Wunderground v.1.15,2013-04-19 04:53:00,
2013-04-18 23:56:00,34.8,32.4,29.43,SSW,206,8.0,9.0,91,0.00,,,0.24,0,Wunderground v.1.15,2013-04-19 04:56:00,
2013-04-18 23:57:00,34.7,32.3,29.43,SW,215,8.0,9.0,91,0.00,,,0.24,0,Wunderground v.1.15,2013-04-19 04:57:00,
2013-04-18 23:58:00,34.7,32.3,29.43,SSW,202,7.0,9.0,91,0.00,,,0.24,0,Wunderground v.1.15,2013-04-19 04:58:00,